SR-99 : Kings River Atmospheric Data: 03/22/2019 Summary  Detailed Graphs  Station List

  Temperature     Wind Precipitation Visibility
Timestamp Air Wet
Bulb
Dew-
point
24-hr
Max
24-hr
Min
Relative
Humidity
Atmospheric
Pressure
Avg
Speed
Avg
Dir
Spot
Speed
Spot
Dir
Max
Speed
Max
Dir
  Rate Situation Start End 1 hr 3 hr 6 hr 12 hr 24 hr   Situation
Date Time °F °F °F °F °F % in Hg mph ° mph ° mph ° Y/N in/hr text Date Time Date Time in in in in in mi text
03/22/2019 12:01 AM 50.18 48.02 46.04 66.38 47.12 86.0 Not Reported 1.12 SW 1.34 SW 3.58 NW x x Other     x x x x x 1.24 Clear
03/22/2019 12:02 AM 50.00 48.02 46.04 66.38 47.12 86.0 Not Reported 1.34 SW 1.12 SW 3.58 NW x x Other     x x x x x 1.24 Clear
03/22/2019 12:03 AM 49.82 47.84 46.22 66.38 47.12 87.0 Not Reported 1.57 SW 0.89 W 3.58 NW x x Other     x x x x x 1.24 Clear
03/22/2019 12:04 AM 49.82 48.02 46.40 66.38 47.12 88.0 Not Reported 1.57 SW 1.12 SW 3.58 NW x x Other     x x x x x 1.24 Clear
03/22/2019 12:05 AM 49.64 48.02 46.40 66.38 47.12 88.0 Not Reported 2.01 SW 2.91 W 5.37 W x x Other     x x x x x 1.24 Clear
03/22/2019 12:06 AM 49.82 48.20 46.58 66.38 47.12 88.0 Not Reported 2.24 W 2.01 W 5.37 W x x Other     x x x x x 1.24 Clear
03/22/2019 12:07 AM 50.00 48.20 46.58 66.38 47.12 88.0 Not Reported 2.68 W 4.03 W 6.26 W x x Other     x x x x x 1.24 Clear
03/22/2019 12:08 AM 50.00 48.38 46.76 66.38 47.12 88.0 Not Reported 3.58 W 3.13 W 6.26 W x x Other     x x x x x 1.24 Clear
03/22/2019 12:09 AM 50.18 48.38 46.58 66.38 47.12 87.0 Not Reported 4.25 W 4.03 W 6.49 W x x Other     x x x x x 1.24 Clear
03/22/2019 12:10 AM 50.18 48.38 46.58 66.38 47.12 87.0 Not Reported 4.47 W 4.92 W 6.49 W x x Other     x x x x x 1.24 Clear
03/22/2019 12:11 AM 50.36 48.38 46.58 66.38 47.12 87.0 Not Reported 4.47 W 5.37 W 6.49 W x x Other     x x x x x 1.24 Clear
03/22/2019 12:12 AM 50.54 48.56 46.58 66.38 47.12 86.0 Not Reported 4.47 W 3.36 W 6.49 W x x Other     x x x x x 1.24 Clear
03/22/2019 12:13 AM 50.54 48.38 46.40 66.38 47.12 86.0 Not Reported 4.03 W 3.58 W 6.49 W x x Other     x x x x x 1.24 Clear
03/22/2019 12:14 AM 50.54 48.38 46.40 66.38 47.12 86.0 Not Reported 3.58 W 3.58 W 6.49 W x x Other     x x x x x 1.24 Clear
03/22/2019 12:15 AM 50.36 48.20 46.22 66.38 47.12 85.0 Not Reported 3.58 W 3.36 W 6.49 W x x Other     x x x x x 1.24 Clear
03/22/2019 12:16 AM 50.00 47.84 45.68 66.38 47.12 85.0 Not Reported 3.58 W 3.36 W 6.49 W x x Other     x x x x x 1.24 Clear
03/22/2019 12:17 AM 49.82 47.84 46.04 66.38 47.12 86.0 Not Reported 3.80 W 4.47 W 6.49 W x x Other     x x x x x 1.24 Clear
03/22/2019 12:18 AM 49.64 47.66 45.68 66.38 47.12 86.0 Not Reported 3.58 W 3.36 W 6.04 W x x Other     x x x x x 1.24 Clear
03/22/2019 12:20 AM 49.28 47.66 46.22 66.38 47.12 89.0 Not Reported 4.03 W 4.25 W 6.04 W x x Other     x x x x x 1.24 Clear
03/22/2019 12:21 AM 49.46 47.84 46.40 66.38 47.12 89.0 Not Reported 4.47 W 4.25 W 5.82 W x x Other     x x x x x 1.24 Clear
03/22/2019 12:22 AM 49.28 47.66 46.22 66.38 47.12 89.0 Not Reported 4.92 W 5.82 W 7.38 W x x Other     x x x x x 1.24 Clear
03/22/2019 12:23 AM 49.28 47.84 46.58 66.38 47.12 90.0 Not Reported 5.37 W 6.49 W 7.61 W x x Other     x x x x x 1.24 Clear
03/22/2019 12:24 AM 49.46 48.02 46.58 66.38 47.12 89.0 Not Reported 4.92 W 3.58 W 7.61 W x x Other     x x x x x 1.24 Clear
03/22/2019 12:25 AM 49.64 48.02 46.58 66.38 47.12 89.0 Not Reported 4.25 W 4.70 NW 7.61 W x x Other     x x x x x 1.24 Clear
03/22/2019 12:26 AM 49.82 48.20 46.76 66.38 47.12 89.0 Not Reported 3.80 W 4.25 W 7.61 W x x Other     x x x x x 1.24 Clear
03/22/2019 12:27 AM 49.82 48.20 46.76 66.38 47.12 88.0 Not Reported 3.80 W 4.70 W 7.61 W x x Other     x x x x x 1.24 Clear
03/22/2019 12:28 AM 49.82 48.20 46.58 66.38 47.12 88.0 Not Reported 4.47 W 4.25 NW 7.61 W x x Other     x x x x x 1.24 Clear
03/22/2019 12:29 AM 50.00 48.20 46.58 66.38 47.12 88.0 Not Reported 4.70 NW 2.24 NW 7.61 W x x Other     x x x x x 1.24 Clear
03/22/2019 12:30 AM 50.00 48.38 46.76 66.38 47.12 88.0 Not Reported 4.03 NW 1.57 NW 7.61 W x x Other     x x x x x 1.24 Clear
03/22/2019 12:31 AM 50.00 48.20 46.40 66.38 47.12 87.0 Not Reported 2.68 NW 1.57 N 7.61 W x x Other     x x x x x 1.24 Clear
03/22/2019 12:32 AM 49.64 47.84 46.04 66.38 47.12 87.0 Not Reported 1.57 NW 2.46 NE 7.61 W x x Other     x x x x x 1.24 Clear
03/22/2019 12:33 AM 49.46 47.66 45.86 66.38 47.12 87.0 Not Reported 1.79 NE 1.79 NE 6.26 NW x x Other     x x x x x 1.24 Clear
03/22/2019 12:34 AM 48.92 46.94 44.96 66.38 47.12 86.0 Not Reported 2.24 N 2.24 N 6.26 NW x x Other     x x x x x 1.24 Clear
03/22/2019 12:35 AM 48.20 46.40 44.60 66.38 47.12 87.0 Not Reported 2.24 N 2.01 N 6.26 NW x x Other     x x x x x 1.24 Clear
03/22/2019 12:36 AM 47.66 46.04 44.42 66.38 47.12 88.0 Not Reported 2.24 NE 2.91 NE 6.26 NW x x Other     x x x x x 1.24 Clear
03/22/2019 12:37 AM 47.48 46.04 44.78 66.38 47.12 90.0 Not Reported 2.68 NE 2.46 NE 6.26 NW x x Other     x x x x x 1.24 Clear
03/22/2019 12:38 AM 47.48 46.22 45.14 66.38 47.12 91.0 Not Reported 2.91 NE 3.13 NE 5.14 NW x x Other     x x x x x 1.24 Clear
03/22/2019 12:39 AM 47.12 46.04 44.78 66.38 47.12 91.0 Not Reported 3.36 NE 2.91 N 4.25 N x x Other     x x x x x 1.24 Clear
03/22/2019 12:40 AM 46.94 45.86 44.78 66.38 46.94 92.0 Not Reported 3.36 NE 2.91 N 4.25 N x x Other     x x x x x 1.24 Clear
03/22/2019 12:41 AM 47.30 46.40 45.32 66.38 46.94 93.0 Not Reported 3.13 N 2.91 NE 4.25 N x x Other     x x x x x 1.24 Clear
03/22/2019 12:42 AM 47.30 46.40 45.50 66.38 46.94 93.0 Not Reported 2.91 N 2.68 N 4.25 N x x Other     x x x x x 1.24 Clear
03/22/2019 12:43 AM 47.48 46.58 45.68 66.38 46.94 93.0 Not Reported 2.46 N 2.01 N 4.25 N x x Other     x x x x x 1.24 Clear
03/22/2019 12:44 AM 47.84 46.94 45.86 66.38 46.94 93.0 Not Reported 2.24 N 2.46 N 4.25 N x x Other     x x x x x 1.24 Clear
03/22/2019 12:45 AM 48.02 47.12 46.22 66.38 46.94 93.0 Not Reported 2.24 N 2.24 N 4.25 N x x Other     x x x x x 1.24 Clear
03/22/2019 12:46 AM 48.56 47.48 46.40 66.38 46.94 92.0 Not Reported 2.24 N 1.57 N 4.25 N x x Other     x x x x x 1.24 Clear
03/22/2019 12:47 AM 48.74 47.48 46.40 66.38 46.94 91.0 Not Reported 2.46 NW 3.36 NW 4.25 N x x Other     x x x x x 1.24 Clear
03/22/2019 12:48 AM 48.92 47.66 46.22 66.38 46.94 90.0 Not Reported 2.46 NW 1.79 NW 4.47 NW x x Other     x x x x x 1.24 Clear
03/22/2019 12:49 AM 48.92 47.48 46.04 66.38 46.94 89.0 Not Reported 2.68 NW 4.03 NW 4.47 NW x x Other     x x x x x 1.24 Clear
03/22/2019 12:50 AM 48.92 47.30 45.68 66.38 46.94 88.0 Not Reported 3.36 NW 4.92 NW 4.92 NW x x Other     x x x x x 1.24 Clear
03/22/2019 12:51 AM 48.56 46.94 45.50 66.38 46.94 89.0 Not Reported 4.25 NW 6.04 N 6.04 N x x Other     x x x x x 1.24 Clear
03/22/2019 12:52 AM 48.56 47.12 45.68 66.38 46.94 90.0 Not Reported 5.14 N 5.37 N 6.26 N x x Other     x x x x x 1.24 Clear
03/22/2019 12:53 AM 48.56 47.30 45.86 66.38 46.94 90.0 Not Reported 4.70 N 2.68 N 6.26 N x x Other     x x x x x 1.24 Clear
03/22/2019 12:54 AM 48.38 46.94 45.50 66.38 46.94 89.0 Not Reported 4.03 N 4.47 N 6.26 N x x Other     x x x x x 1.24 Clear
03/22/2019 12:55 AM 48.20 46.58 44.96 66.38 46.94 89.0 Not Reported 4.03 N 3.80 N 6.26 N x x Other     x x x x x 1.24 Clear
03/22/2019 12:57 AM 48.02 46.58 45.32 66.38 46.94 90.0 Not Reported 4.70 N 4.92 N 6.26 N x x Other     x x x x x 1.24 Clear
03/22/2019 12:58 AM 48.02 46.58 45.14 66.38 46.94 90.0 Not Reported 4.92 N 4.47 N 6.26 N x x Other     x x x x x 1.24 Clear
03/22/2019 12:59 AM 47.84 46.58 45.14 66.38 46.94 90.0 Not Reported 4.92 N 3.80 N 6.26 N x x Other     x x x x x 1.24 Clear
03/22/2019 01:00 AM 47.84 46.58 45.14 66.38 46.94 90.0 Not Reported 4.47 N 3.58 N 6.26 N x x Other     x x x x x 1.24 Clear
03/22/2019 01:01 AM 47.84 46.76 45.14 66.38 46.94 90.0 Not Reported 3.58 NW 2.01 NW 6.26 N x x Other     x x x x x 1.24 Clear
03/22/2019 01:02 AM 48.02 46.76 45.32 66.38 46.94 90.0 Not Reported 3.13 NW 2.68 NW 6.04 NW x x Other     x x x x x 1.24 Clear
03/22/2019 01:03 AM 48.02 46.76 45.32 66.38 46.94 89.0 Not Reported 3.36 NW 3.80 NW 6.04 NW x x Other     x x x x x 1.24 Clear
03/22/2019 01:04 AM 48.20 46.76 45.32 66.38 46.94 90.0 Not Reported 2.91 NW 4.03 NW 6.04 NW x x Other     x x x x x 1.24 Clear
03/22/2019 01:05 AM 48.20 46.76 45.32 66.38 46.94 90.0 Not Reported 2.91 N 2.01 NE 6.04 NW x x Other     x x x x x 1.24 Clear
03/22/2019 01:06 AM 48.20 46.58 45.32 66.38 46.94 89.0 Not Reported 2.91 N 3.58 N 6.04 NW x x Other     x x x x x 1.24 Clear
03/22/2019 01:07 AM 48.20 46.76 45.14 66.38 46.94 89.0 Not Reported 2.91 NW 3.36 NW 6.04 NW x x Other     x x x x x 1.24 Clear
03/22/2019 01:08 AM 48.20 46.76 45.32 66.38 46.94 90.0 Not Reported 2.68 NW 2.24 NW 6.04 NW x x Other     x x x x x 1.24 Clear
03/22/2019 01:09 AM 48.20 46.76 45.32 66.38 46.94 89.0 Not Reported 2.24 NW 2.01 NW 6.04 NW x x Other     x x x x x 1.24 Clear
03/22/2019 01:10 AM 48.02 46.58 45.14 66.38 46.94 89.0 Not Reported 2.01 N 2.01 N 5.14 NW x x Other     x x x x x 1.24 Clear
03/22/2019 01:11 AM 48.02 46.58 45.14 66.38 46.94 90.0 Not Reported 1.79 N 1.12 NW 4.25 N x x Other     x x x x x 1.24 Clear
03/22/2019 01:12 AM 47.84 46.40 44.96 66.38 46.94 89.0 Not Reported 1.79 N 2.68 N 4.25 N x x Other     x x x x x 1.24 Clear
03/22/2019 01:13 AM 47.84 46.40 44.96 66.38 46.94 90.0 Not Reported 1.79 N 2.24 N 4.25 N x x Other     x x x x x 1.24 Clear
03/22/2019 01:14 AM 47.84 46.40 45.14 66.38 46.94 91.0 Not Reported 1.57 N 1.57 NE 3.80 NW x x Other     x x x x x 1.24 Clear
03/22/2019 01:15 AM 47.84 46.76 45.50 66.38 46.94 91.0 Not Reported 2.01 N 3.13 NE 3.80 NW x x Other     x x x x x 1.24 Clear
03/22/2019 01:16 AM 48.02 46.94 45.68 66.38 46.94 91.0 Not Reported 2.01 NE 2.68 E 3.58 NE x x Other     x x x x x 1.24 Clear
03/22/2019 01:17 AM 48.38 47.30 46.04 66.38 46.94 91.0 Not Reported 2.01 NE 2.24 NW 3.58 NE x x Other     x x x x x 1.24 Clear
03/22/2019 01:18 AM 48.74 47.48 46.22 66.38 46.94 91.0 Not Reported 1.57 NE 1.12 E 3.58 NE x x Other     x x x x x 1.24 Clear
03/22/2019 01:19 AM 48.92 47.48 46.04 66.38 46.94 89.0 Not Reported 1.12 NE 1.12 N 3.58 NE x x Other     x x x x x 1.24 Clear
03/22/2019 01:20 AM 48.92 47.30 45.68 66.38 46.94 88.0 Not Reported 1.12 NE 0.89 N 3.58 NE x x Other     x x x x x 1.24 Clear
03/22/2019 01:21 AM 48.74 47.12 45.50 66.38 46.94 88.0 Not Reported 1.34 NE 2.24 N 3.58 NE x x Other     x x x x x 1.24 Clear
03/22/2019 01:22 AM 48.38 46.76 45.14 66.38 46.94 88.0 Not Reported 1.57 NE 2.46 NE 3.58 NE x x Other     x x x x x 1.24 Clear
03/22/2019 01:23 AM 48.38 46.76 45.32 66.38 46.94 89.0 Not Reported 1.79 NE 2.01 NE 3.58 NE x x Other     x x x x x 1.24 Clear
03/22/2019 01:24 AM 48.20 46.76 45.32 66.38 46.94 89.0 Not Reported 1.79 NE 1.34 NE 3.58 NE x x Other     x x x x x 1.24 Clear
03/22/2019 01:25 AM 48.02 46.58 44.96 66.38 46.94 89.0 Not Reported 1.57 NE 1.34 NW 3.13 NE x x Other     x x x x x 1.24 Clear
03/22/2019 01:26 AM 47.84 46.40 44.96 66.38 46.94 90.0 Not Reported 1.12 N 2.24 N 2.68 N x x Other     x x x x x 1.24 Clear
03/22/2019 01:27 AM 47.66 46.40 45.14 66.38 46.94 90.0 Not Reported 1.12 N 1.34 N 2.68 N x x Other     x x x x x 1.24 Clear
03/22/2019 01:28 AM 47.84 46.58 45.32 66.38 46.94 91.0 Not Reported 1.12 N 0.45 W 2.68 N x x Other     x x x x x 1.24 Clear
03/22/2019 01:29 AM 47.84 46.58 45.50 66.38 46.94 91.0 Not Reported 0.89 NW 3.13 W 3.58 W x x Other     x x x x x 1.24 Clear
03/22/2019 01:30 AM 48.02 46.94 45.68 66.38 46.94 91.0 Not Reported 2.01 NW 4.03 W 4.03 NW x x Other     x x x x x 1.24 Clear
03/22/2019 01:31 AM 48.20 46.94 45.68 66.38 46.94 91.0 Not Reported 2.91 W 2.46 W 4.03 NW x x Other     x x x x x 1.24 Clear
03/22/2019 01:32 AM 48.20 46.76 45.50 66.38 46.94 90.0 Not Reported 2.68 W 2.91 W 4.03 NW x x Other     x x x x x 1.24 Clear
03/22/2019 01:33 AM 48.02 46.58 45.14 66.38 46.94 90.0 Not Reported 2.68 W 2.46 W 4.03 NW x x Other     x x x x x 1.24 Clear
03/22/2019 01:34 AM 47.84 46.40 45.14 66.38 46.94 90.0 Not Reported 2.46 W 2.46 W 4.03 NW x x Other     x x x x x 1.24 Clear
03/22/2019 01:35 AM 47.66 46.40 44.96 66.38 46.94 90.0 Not Reported 2.01 W 1.79 W 4.03 NW x x Other     x x x x x 1.24 Clear
03/22/2019 01:36 AM 47.48 46.22 45.14 66.38 46.94 91.0 Not Reported 1.57 W 1.12 W 4.03 NW x x Other     x x x x x 1.24 Clear
03/22/2019 01:37 AM 47.48 46.40 45.32 66.38 46.94 92.0 Not Reported 1.34 W 0.67 SW 4.03 NW x x Other     x x x x x 1.24 Clear
03/22/2019 01:38 AM 47.48 46.40 45.50 66.38 46.94 92.0 Not Reported 1.34 W 1.57 W 4.03 NW x x Other     x x x x x 1.24 Clear
03/22/2019 01:39 AM 47.48 46.58 45.50 66.38 46.94 93.0 Not Reported 1.12 W 1.12 W 4.03 W x x Other     x x x x x 1.24 Clear
03/22/2019 01:40 AM 47.48 46.58 45.50 66.38 46.94 93.0 Not Reported 1.12 W 1.34 W 3.36 W x x Other     x x x x x 1.24 Clear
03/22/2019 01:41 AM 47.30 46.40 45.50 66.38 46.94 93.0 Not Reported 1.12 W 1.12 SW 3.13 W x x Other     x x x x x 1.24 Clear
03/22/2019 01:42 AM 47.30 46.40 45.68 66.38 46.94 94.0 Not Reported 1.34 W 2.91 W 2.91 W x x Other     x x x x x 1.24 Clear
03/22/2019 01:43 AM 47.30 46.58 45.86 66.38 46.94 94.0 Not Reported 1.79 W 1.79 W 3.36 W x x Other     x x x x x 1.24 Clear
03/22/2019 01:44 AM 47.48 46.76 45.86 66.38 46.94 94.0 Not Reported 1.79 W 1.57 W 3.36 W x x Other     x x x x x 1.24 Clear
03/22/2019 01:45 AM 47.66 46.76 46.04 66.38 46.94 94.0 Not Reported 1.79 NW 1.79 W 3.36 W x x Other     x x x x x 1.24 Clear
03/22/2019 01:46 AM 47.66 46.76 45.86 66.38 46.94 93.0 Not Reported 2.01 W 2.01 W 3.36 W x x Other     x x x x x 1.24 Clear
03/22/2019 01:47 AM 47.66 46.76 45.86 66.38 46.94 93.0 Not Reported 2.01 W 2.46 NW 3.36 W x x Other     x x x x x 1.24 Clear
03/22/2019 01:48 AM 47.84 46.94 46.04 66.38 46.94 93.0 Not Reported 1.79 W 1.57 SW 3.36 W x x Other     x x x x x 1.24 Clear
03/22/2019 01:49 AM 47.84 46.94 46.04 66.38 46.94 93.0 Not Reported 1.79 W 1.79 W 3.36 W x x Other     x x x x x 1.24 Clear
03/22/2019 01:50 AM 47.84 46.94 46.04 66.38 46.94 93.0 Not Reported 1.79 W 1.34 W 3.36 W x x Other     x x x x x 1.24 Clear
03/22/2019 01:51 AM 47.84 46.94 46.04 66.38 46.94 93.0 Not Reported 1.57 W 1.57 W 3.36 W x x Other     x x x x x 1.24 Clear
03/22/2019 01:52 AM 47.84 46.94 45.86 66.38 46.94 93.0 Not Reported 1.57 W 1.57 SW 3.13 W x x Other     x x x x x 1.24 Clear
03/22/2019 01:53 AM 48.02 46.94 46.04 66.38 46.94 93.0 Not Reported 1.79 SW 1.79 SW 4.03 W x x Other     x x x x x 1.24 Clear
03/22/2019 01:54 AM 48.02 47.12 46.22 66.38 46.94 93.0 Not Reported 1.79 SW 1.57 W 4.03 W x x Other     x x x x x 1.24 Clear
03/22/2019 01:55 AM 48.20 47.12 46.04 66.38 46.94 92.0 Not Reported 1.79 SW 2.46 SW 4.03 W x x Other     x x x x x 1.24 Clear
03/22/2019 01:56 AM 48.20 46.94 45.86 66.38 46.94 92.0 Not Reported 2.01 SW 1.79 SW 4.03 W x x Other     x x x x x 1.24 Clear
03/22/2019 01:57 AM 48.02 46.94 45.86 66.38 46.94 92.0 Not Reported 2.01 SW 2.46 SW 4.03 W x x Other     x x x x x 1.24 Clear
03/22/2019 01:58 AM 47.84 46.76 45.86 66.38 46.94 93.0 Not Reported 2.24 SW 2.91 SW 4.03 W x x Other     x x x x x 1.24 Clear
03/22/2019 01:59 AM 47.66 46.76 45.68 66.38 46.94 93.0 Not Reported 2.68 SW 2.46 SW 4.03 W x x Other     x x x x x 1.24 Clear
03/22/2019 02:01 AM 47.12 46.22 45.32 66.38 46.94 93.0 Not Reported 3.13 SW 3.80 SW 4.03 W x x Other     x x x x x 1.24 Clear
03/22/2019 02:03 AM 46.94 46.22 45.32 66.38 46.94 94.0 Not Reported 2.68 SW 3.13 SW 3.80 SW x x Other     x x x x x 1.24 Clear
03/22/2019 02:04 AM 46.94 46.40 45.68 66.38 46.94 95.0 Not Reported 2.68 SW 3.58 W 3.80 SW x x Other     x x x x x 1.24 Clear
03/22/2019 02:05 AM 47.12 46.58 46.04 66.38 46.94 96.0 Not Reported 2.91 SW 3.13 SW 3.80 SW x x Other     x x x x x 1.24 Clear
03/22/2019 02:06 AM 47.12 46.58 46.04 66.38 46.94 96.0 Not Reported 2.68 SW 2.01 W 3.80 SW x x Other     x x x x x 1.24 Clear
03/22/2019 02:07 AM 47.12 46.58 46.04 66.38 46.94 96.0 Not Reported 2.46 SW 2.68 SW 3.80 SW x x Other     x x x x x 1.24 Clear
03/22/2019 02:08 AM 47.12 46.76 46.22 66.38 46.94 96.0 Not Reported 2.46 SW 2.24 SW 3.80 SW x x Other     x x x x x 1.24 Clear
03/22/2019 02:09 AM 47.30 46.76 46.40 66.38 46.94 96.0 Not Reported 2.68 SW 2.91 SW 3.80 SW x x Other     x x x x x 1.24 Clear
03/22/2019 02:10 AM 47.30 46.76 46.22 66.38 46.94 96.0 Not Reported 2.68 SW 2.91 SW 3.80 SW x x Other     x x x x x 1.24 Clear
03/22/2019 02:11 AM 47.30 46.76 46.22 66.38 46.94 96.0 Not Reported 2.68 SW 2.91 SW 3.80 W x x Other     x x x x x 1.24 Clear
03/22/2019 02:12 AM 47.12 46.58 46.04 66.38 46.94 96.0 Not Reported 2.91 SW 2.68 SW 3.58 SW x x Other     x x x x x 1.24 Clear
03/22/2019 02:13 AM 47.12 46.58 46.04 66.38 46.94 96.0 Not Reported 2.91 SW 2.91 SW 3.58 SW x x Other     x x x x x 1.24 Clear
03/22/2019 02:15 AM 47.30 46.76 46.40 66.38 46.94 97.0 Not Reported 2.46 SW 1.57 SW 3.58 SW x x Other     x x x x x 1.24 Clear
03/22/2019 02:16 AM 47.30 46.94 46.40 66.38 46.94 96.0 Not Reported 2.24 SW 2.68 SW 3.58 SW x x Other     x x x x x 1.24 Clear
03/22/2019 02:18 AM 47.48 46.94 46.40 66.38 46.94 96.0 Not Reported 1.79 SW 1.57 SW 3.58 SW x x Other     x x x x x 1.24 Clear
03/22/2019 02:19 AM 47.48 46.94 46.40 66.38 46.94 96.0 Not Reported 2.01 SW 1.79 W 3.58 SW x x Other     x x x x x 1.24 Clear
03/22/2019 02:20 AM 47.66 46.94 46.40 66.38 46.94 95.0 Not Reported 2.24 SW 1.34 W 3.58 SW x x Other     x x x x x 1.24 Clear
03/22/2019 02:21 AM 47.66 46.94 46.40 66.38 46.94 95.0 Not Reported 2.01 SW 2.46 SW 3.36 SW x x Other     x x x x x 1.24 Clear
03/22/2019 02:22 AM 47.66 46.94 46.40 66.38 46.94 95.0 Not Reported 2.01 SW 2.24 W 3.36 SW x x Other     x x x x x 1.24 Clear
03/22/2019 02:23 AM 47.66 47.12 46.40 66.38 46.94 95.0 Not Reported 2.01 W 1.57 W 3.36 SW x x Other     x x x x x 1.24 Clear
03/22/2019 02:24 AM 47.66 46.94 46.22 66.38 46.94 94.0 Not Reported 1.79 W 2.91 W 3.36 SW x x Other     x x x x x 1.24 Clear
03/22/2019 02:25 AM 47.84 46.94 46.22 66.38 46.94 94.0 Not Reported 1.79 W 4.03 W 2.91 SW Yes x Other     x x x x x 1.24 Clear
03/22/2019 02:26 AM 47.84 47.12 46.22 66.38 46.94 94.0 Not Reported 2.24 W 2.46 W 4.03 W x x Other     x x x x x 1.24 Clear
03/22/2019 02:27 AM 48.02 47.12 46.40 66.38 46.94 94.0 Not Reported 2.91 W 3.13 W 4.25 W x x Other     x x x x x 1.24 Clear
03/22/2019 02:28 AM 48.20 47.12 46.22 66.38 46.94 93.0 Not Reported 2.46 W 1.57 W 4.25 W x x Other     x x x x x 1.24 Clear
03/22/2019 02:29 AM 48.20 47.12 46.22 66.38 46.94 92.0 Not Reported 1.57 W 1.12 NW 4.25 W x x Other     x x x x x 1.24 Clear
03/22/2019 02:30 AM 48.20 47.12 46.04 66.38 46.94 92.0 Not Reported 1.34 W 1.57 W 4.25 W x x Other     x x x x x 1.24 Clear
03/22/2019 02:31 AM 48.20 47.30 46.22 66.38 46.94 92.0 Not Reported 1.34 W 1.34 W 4.25 W x x Other     x x x x x 1.24 Clear
03/22/2019 02:32 AM 48.38 47.30 46.04 66.38 46.94 92.0 Not Reported 1.57 NW 1.57 W 4.25 W x x Other     x x x x x 1.24 Clear
03/22/2019 02:33 AM 48.38 47.12 46.04 66.38 46.94 91.0 Not Reported 1.57 W 1.34 N 4.25 W x x Other     x x x x x 1.24 Clear
03/22/2019 02:34 AM 48.38 47.12 46.04 66.38 46.94 91.0 Not Reported 1.57 N 2.24 NE 4.25 W x x Other     x x x x x 1.24 Clear
03/22/2019 02:35 AM 48.38 47.12 46.04 66.38 46.94 91.0 Not Reported 1.34 E 0.22 E 4.25 W x x Other     x x x x x 1.24 Clear
03/22/2019 02:36 AM 48.56 47.12 45.86 66.38 46.94 90.0 Not Reported 1.34 NW 1.57 N 4.03 NW x x Other     x x x x x 1.24 Clear
03/22/2019 02:37 AM 48.38 47.12 45.68 66.38 46.94 90.0 Not Reported 1.57 W 1.79 NW 4.47 W x x Other     x x x x x 1.24 Clear
03/22/2019 02:38 AM 48.38 46.94 45.50 66.38 46.94 90.0 Not Reported 2.01 W 2.01 NW 4.47 W x x Other     x x x x x 1.24 Clear
03/22/2019 02:39 AM 48.38 46.94 45.50 66.38 46.94 90.0 Not Reported 2.01 NW 2.24 NW 4.47 W x x Other     x x x x x 1.24 Clear
03/22/2019 02:40 AM 48.38 46.94 45.50 66.38 46.94 90.0 Not Reported 1.57 N 2.01 E 4.47 W x x Other     x x x x x 1.24 Clear
03/22/2019 02:41 AM 48.20 46.58 45.14 66.38 46.94 89.0 Not Reported 1.12 E 3.13 E 4.47 W x x Other     x x x x x 1.24 Clear
03/22/2019 02:42 AM 47.84 46.40 44.78 66.38 46.94 89.0 Not Reported 1.57 NE 2.01 NE 4.47 W x x Other     x x x x x 1.24 Clear
03/22/2019 02:43 AM 47.48 45.86 44.42 66.38 46.94 89.0 Not Reported 2.24 NE 2.24 NE 4.47 W x x Other     x x x x x 1.24 Clear
03/22/2019 02:44 AM 46.76 45.32 43.70 66.38 46.76 89.0 Not Reported 2.46 NE 3.13 NE 4.47 W x x Other     x x x x x 1.24 Clear
03/22/2019 02:45 AM 46.22 44.78 43.34 66.38 46.22 90.0 Not Reported 2.91 NE 3.80 NE 4.47 W x x Other     x x x x x 1.24 Clear
03/22/2019 02:46 AM 45.86 44.60 43.52 66.38 45.86 91.0 Not Reported 3.36 NE 3.58 NE 4.92 NE x x Other     x x x x x 1.24 Clear
03/22/2019 02:47 AM 45.68 44.78 43.70 66.38 45.68 93.0 Not Reported 3.80 NE 2.68 E 4.92 NE x x Other     x x x x x 1.24 Clear
03/22/2019 02:48 AM 45.50 44.60 43.70 66.38 45.50 93.0 Not Reported 4.03 NE 5.59 NE 5.59 NE x x Other     x x x x x 1.24 Clear
03/22/2019 02:49 AM 45.14 44.42 43.52 66.38 45.14 94.0 Not Reported 4.47 NE 4.92 NE 5.82 NE x x Other     x x x x x 1.24 Clear
03/22/2019 02:50 AM 45.14 44.42 43.52 66.38 45.14 94.0 Not Reported 4.92 NE 5.37 NE 5.82 NE x x Other     x x x x x 1.24 Clear
03/22/2019 02:51 AM 44.96 44.42 43.52 66.38 44.96 95.0 Not Reported 5.14 NE 5.14 NE 5.82 NE x x Other     x x x x x 1.24 Clear
03/22/2019 02:52 AM 44.78 44.24 43.52 66.38 44.78 95.0 Not Reported 5.14 NE 5.37 NE 5.82 NE x x Other     x x x x x 1.24 Clear
03/22/2019 02:53 AM 44.78 44.24 43.70 66.38 44.78 95.0 Not Reported 5.37 NE 5.82 E 6.49 E x x Other     x x x x x 1.24 Clear
03/22/2019 02:54 AM 44.78 44.24 43.52 66.38 44.78 95.0 Not Reported 5.82 E 6.04 E 6.49 E x x Other     x x x x x 1.24 Clear
03/22/2019 02:55 AM 44.78 44.24 43.70 66.38 44.78 96.0 Not Reported 5.82 E 5.37 E 6.49 E x x Other     x x x x x 1.24 Clear
03/22/2019 02:56 AM 44.78 44.24 43.70 66.38 44.78 96.0 Not Reported 5.37 E 5.14 E 6.49 E x x Other     x x x x x 1.24 Clear
03/22/2019 02:57 AM 44.78 44.24 43.88 66.38 44.78 96.0 Not Reported 5.14 E 4.47 E 6.49 E x x Other     x x x x x 1.24 Clear
03/22/2019 02:58 AM 44.78 44.42 43.88 66.38 44.78 96.0 Not Reported 4.70 E 4.47 E 6.49 E x x Other     x x x x x 1.24 Clear
03/22/2019 02:59 AM 44.60 44.24 43.70 66.38 44.60 96.0 Not Reported 4.25 E 4.70 E 6.49 E x x Other     x x x x x 1.24 Clear
03/22/2019 03:00 AM 44.60 44.24 43.70 66.38 44.60 96.0 Not Reported 4.25 E 4.03 NE 6.49 E x x Other     x x x x x 1.24 Clear
03/22/2019 03:01 AM 44.60 44.06 43.70 66.38 44.60 96.0 Not Reported 4.25 E 4.47 E 6.49 E x x Other     x x x x x 1.24 Clear
03/22/2019 03:02 AM 44.60 44.06 43.70 66.38 44.60 97.0 Not Reported 4.25 E 4.25 E 6.49 E x x Other     x x x x x 1.24 Clear
03/22/2019 03:03 AM 44.42 44.06 43.70 66.38 44.42 97.0 Not Reported 4.47 E 4.25 E 6.49 E x x Other     x x x x x 1.24 Clear
03/22/2019 03:04 AM 44.42 44.06 43.70 66.38 44.42 97.0 Not Reported 4.03 E 2.91 NE 6.26 E x x Other     x x x x x 1.24 Clear
03/22/2019 03:05 AM 44.42 44.06 43.70 66.38 44.42 97.0 Not Reported 3.36 NE 3.13 E 5.59 E x x Other     x x x x x 1.24 Clear
03/22/2019 03:06 AM 44.60 44.24 43.88 66.38 44.42 97.0 Not Reported 2.91 NE 2.68 E 5.14 E x x Other     x x x x x 1.24 Clear
03/22/2019 03:07 AM 44.60 44.24 43.88 66.38 44.42 97.0 Not Reported 2.68 E 3.36 E 4.92 E x x Other     x x x x x 1.24 Clear
03/22/2019 03:08 AM 44.42 44.06 43.70 66.38 44.42 97.0 Not Reported 2.91 E 3.13 E 4.92 E x x Other     x x x x x 1.24 Clear
03/22/2019 03:09 AM 44.60 44.24 43.88 66.38 44.42 97.0 Not Reported 3.13 E 2.01 E 4.92 E x x Other     x x x x x 1.24 Clear
03/22/2019 03:10 AM 44.78 44.60 44.24 66.38 44.42 98.0 Not Reported 2.91 E 1.79 E 4.92 E x x Other     x x x x x 1.24 Clear
03/22/2019 03:11 AM 45.14 45.14 44.96 66.38 44.42 99.0 Not Reported 2.01 NE 1.57 NE 4.92 E x x Other     x x x x x 1.24 Clear
03/22/2019 03:12 AM 45.68 45.68 45.50 66.38 44.42 99.0 Not Reported 1.57 E 2.68 E 4.92 E x x Other     x x x x x 1.24 Clear
03/22/2019 03:13 AM 45.86 45.68 45.50 66.38 44.42 99.0 Not Reported 2.01 E 2.91 E 4.03 E x x Other     x x x x x 1.24 Clear
03/22/2019 03:14 AM 45.68 45.32 44.96 66.38 44.42 97.0 Not Reported 2.46 E 2.46 E 4.03 E x x Other     x x x x x 1.24 Clear
03/22/2019 03:15 AM 45.50 45.14 44.60 66.38 44.42 96.0 Not Reported 2.68 E 2.91 E 4.03 E x x Other     x x x x x 1.24 Clear
03/22/2019 03:16 AM 45.32 44.96 44.42 66.38 44.42 96.0 Not Reported 3.13 E 4.25 E 4.47 E x x Other     x x x x x 1.24 Clear
03/22/2019 03:17 AM 45.68 45.32 44.96 66.38 44.42 97.0 Not Reported 3.58 E 3.58 E 4.47 E x x Other     x x x x x 1.24 Clear
03/22/2019 03:18 AM 45.86 45.50 45.14 66.38 44.42 97.0 Not Reported 3.36 E 2.24 E 4.47 E x x Other     x x x x x 1.24 Clear
03/22/2019 03:19 AM 45.68 45.14 44.60 66.38 44.42 96.0 Not Reported 2.91 E 2.68 E 4.47 E x x Other     x x x x x 1.24 Clear
03/22/2019 03:20 AM 45.50 44.96 44.24 66.38 44.42 95.0 Not Reported 2.46 E 1.34 SE 4.47 E x x Other     x x x x x 1.24 Clear
03/22/2019 03:21 AM 45.50 44.96 44.42 66.38 44.42 95.0 Not Reported 1.79 E 0.22 E 4.47 E x x Other     x x x x x 1.24 Clear
03/22/2019 03:22 AM 45.68 45.32 44.78 66.38 44.42 96.0 Not Reported 0.89 SE 1.12 NW 4.47 E x x Other     x x x x x 1.24 Clear
03/22/2019 03:23 AM 45.86 45.32 44.78 66.38 44.42 96.0 Not Reported 0.89 SW 0.67 E 4.47 E x x Other     x x x x x 1.24 Clear
03/22/2019 03:24 AM 46.04 45.32 44.78 66.38 44.42 95.0 Not Reported 0.89 E 0.89 E 4.47 E x x Other     x x x x x 1.24 Clear
03/22/2019 03:25 AM 46.22 45.68 45.14 66.38 44.42 96.0 Not Reported 1.34 NE 0.89 NE 4.47 E x x Other     x x x x x 1.24 Clear
03/22/2019 03:26 AM 46.40 45.86 45.14 66.38 44.42 95.0 Not Reported 1.12 NE 0.67 W 4.25 E x x Other     x x x x x 1.24 Clear
03/22/2019 03:27 AM 46.40 45.86 45.14 66.38 44.42 95.0 Not Reported 1.34 E 2.46 E 3.36 E x x Other     x x x x x 1.24 Clear
03/22/2019 03:28 AM 46.40 45.68 44.96 66.38 44.42 95.0 Not Reported 2.68 E 2.24 E 4.47 E x x Other     x x x x x 1.24 Clear
03/22/2019 03:29 AM 46.40 45.68 44.96 66.38 44.42 94.0 Not Reported 2.91 E 3.13 E 4.47 E x x Other     x x x x x 1.24 Clear
03/22/2019 03:30 AM 46.40 45.50 44.78 66.38 44.42 94.0 Not Reported 2.46 E 2.68 E 4.47 E x x Other     x x x x x 1.24 Clear
03/22/2019 03:31 AM 46.04 45.32 44.42 66.38 44.42 93.0 Not Reported 2.46 E 2.46 E 4.47 E x x Other     x x x x x 1.24 Clear
03/22/2019 03:33 AM 45.68 44.78 43.88 66.38 44.42 93.0 Not Reported 2.91 E 4.25 E 4.47 E x x Other     x x x x x 1.24 Clear
03/22/2019 03:34 AM 45.86 44.96 44.24 66.38 44.42 94.0 Not Reported 3.58 E 3.13 E 4.92 E x x Other     x x x x x 1.24 Clear
03/22/2019 03:35 AM 45.86 45.14 44.42 66.38 44.42 94.0 Not Reported 3.58 E 3.13 E 4.92 E x x Other     x x x x x 1.24 Clear
03/22/2019 03:36 AM 45.86 45.14 44.24 66.38 44.42 94.0 Not Reported 3.36 E 2.68 E 4.92 E x x Other     x x x x x 1.24 Clear
03/22/2019 03:37 AM 45.68 44.96 44.06 66.38 44.42 94.0 Not Reported 3.13 NE 2.46 E 4.92 E x x Other     x x x x x 1.24 Clear
03/22/2019 03:38 AM 45.50 44.78 43.88 66.38 44.42 93.0 Not Reported 3.13 E 4.03 E 4.92 E x x Other     x x x x x 1.24 Clear
03/22/2019 03:39 AM 45.50 44.60 43.70 66.38 44.42 94.0 Not Reported 4.03 E 4.25 E 4.92 E x x Other     x x x x x 1.24 Clear
03/22/2019 03:40 AM 45.32 44.42 43.70 66.38 44.42 94.0 Not Reported 4.03 E 3.36 E 4.92 E x x Other     x x x x x 1.24 Clear
03/22/2019 03:41 AM 45.32 44.60 43.88 66.38 44.42 94.0 Not Reported 3.80 E 3.58 E 4.92 E x x Other     x x x x x 1.24 Clear
03/22/2019 03:42 AM 45.50 44.78 44.06 66.38 44.42 95.0 Not Reported 3.36 E 3.36 E 4.92 E x x Other     x x x x x 1.24 Clear
03/22/2019 03:43 AM 45.50 44.96 44.24 66.38 44.42 95.0 Not Reported 3.13 E 2.68 E 4.92 E x x Other     x x x x x 1.24 Clear
03/22/2019 03:45 AM 45.50 44.96 44.24 66.38 44.42 95.0 Not Reported 2.01 E 1.79 E 4.70 E x x Other     x x x x x 1.24 Clear
03/22/2019 03:46 AM 45.50 45.14 44.24 66.38 44.42 95.0 Not Reported 1.79 E 1.79 E 4.70 E x x Other     x x x x x 1.24 Clear
03/22/2019 03:47 AM 45.68 45.32 44.42 66.38 44.42 95.0 Not Reported 2.01 E 2.91 E 4.70 E x x Other     x x x x x 1.24 Clear
03/22/2019 03:48 AM 45.86 45.50 44.60 66.38 44.42 95.0 Not Reported 2.01 E 1.79 SE 4.70 E x x Other     x x x x x 1.24 Clear
03/22/2019 03:49 AM 46.04 45.86 44.96 66.38 44.42 96.0 Not Reported 2.01 E 2.68 E 4.70 E x x Other     x x x x x 1.24 Clear
03/22/2019 03:50 AM 46.40 45.86 45.14 66.38 44.42 96.0 Not Reported 2.01 E 1.57 E 4.03 E x x Other     x x x x x 1.24 Clear
03/22/2019 03:51 AM 46.58 46.04 45.32 66.38 44.42 95.0 Not Reported 2.01 E 4.25 E 4.25 E x x Other     x x x x x 1.24 Clear
03/22/2019 03:52 AM 46.58 45.86 45.14 66.38 44.42 94.0 Not Reported 2.91 E 4.03 E 4.25 E x x Other     x x x x x 1.24 Clear
03/22/2019 03:53 AM 46.58 45.68 44.78 66.38 44.42 93.0 Not Reported 3.58 E 3.36 E 5.14 E x x Other     x x x x x 1.24 Clear
03/22/2019 03:54 AM 46.40 45.14 44.06 66.38 44.42 92.0 Not Reported 3.36 E 2.46 E 5.14 E x x Other     x x x x x 1.24 Clear
03/22/2019 03:55 AM 46.22 45.14 44.06 66.38 44.42 92.0 Not Reported 2.46 E 1.79 E 5.14 E x x Other     x x x x x 1.24 Clear
03/22/2019 03:56 AM 46.04 44.96 43.88 66.38 44.42 92.0 Not Reported 1.79 E 2.46 E 5.14 E x x Other     x x x x x 1.24 Clear
03/22/2019 03:57 AM 45.86 44.78 43.88 66.38 44.42 92.0 Not Reported 2.24 NE 2.68 NE 5.14 E x x Other     x x x x x 1.24 Clear
03/22/2019 03:58 AM 45.68 44.78 43.70 66.38 44.42 93.0 Not Reported 2.24 NE 1.57 E 5.14 E x x Other     x x x x x 1.24 Clear
03/22/2019 03:59 AM 45.50 44.60 43.52 66.38 44.42 93.0 Not Reported 2.24 NE 3.80 E 5.14 E x x Other     x x x x x 1.24 Clear
03/22/2019 04:00 AM 45.32 44.60 43.70 66.38 44.42 93.0 Not Reported 2.46 E 1.79 E 5.14 E x x Other     x x x x x 1.24 Clear
03/22/2019 04:01 AM 45.50 44.78 43.88 66.38 44.42 94.0 Not Reported 2.68 E 3.58 E 5.14 E x x Other     x x x x x 1.24 Clear
03/22/2019 04:02 AM 45.50 44.78 44.06 66.38 44.42 94.0 Not Reported 2.68 E 2.24 E 4.25 E x x Other     x x x x x 1.24 Clear
03/22/2019 04:03 AM 45.68 44.96 44.24 66.38 44.42 94.0 Not Reported 2.46 E 2.68 E 4.25 E x x Other     x x x x x 1.24 Clear
03/22/2019 04:04 AM 45.50 44.78 44.06 66.38 44.42 94.0 Not Reported 2.68 E 3.36 NE 4.25 E x x Other     x x x x x 1.24 Clear
03/22/2019 04:05 AM 45.50 44.78 44.06 66.38 44.42 94.0 Not Reported 2.91 NE 3.13 E 4.25 E x x Other     x x x x x 1.24 Clear
03/22/2019 04:06 AM 45.50 44.78 43.88 66.38 44.42 94.0 Not Reported 2.91 NE 3.36 NE 4.25 E x x Other     x x x x x 1.24 Clear
03/22/2019 04:07 AM 45.32 44.60 43.70 66.38 44.42 94.0 Not Reported 2.91 NE 2.46 E 4.25 E x x Other     x x x x x 1.24 Clear
03/22/2019 04:08 AM 45.32 44.60 43.88 66.38 44.42 94.0 Not Reported 2.91 NE 3.13 NE 4.25 E x x Other     x x x x x 1.24 Clear
03/22/2019 04:09 AM 45.32 44.78 43.88 66.38 44.42 95.0 Not Reported 3.13 E 3.36 E 4.25 E x x Other     x x x x x 1.24 Clear
03/22/2019 04:10 AM 45.50 44.78 44.06 66.38 44.42 95.0 Not Reported 3.36 NE 3.36 NE 4.25 E x x Other     x x x x x 1.24 Clear
03/22/2019 04:11 AM 45.68 44.96 44.24 66.38 44.42 95.0 Not Reported 3.58 NE 3.58 NE 4.25 NE x x Other     x x x x x 1.24 Clear
03/22/2019 04:12 AM 45.68 44.96 44.24 66.38 44.42 95.0 Not Reported 3.36 NE 3.13 NE 4.25 NE x x Other     x x x x x 1.24 Clear
03/22/2019 04:13 AM 45.86 45.14 44.60 66.38 44.42 95.0 Not Reported 3.13 NE 2.91 NE 4.25 NE x x Other     x x x x x 1.24 Clear
03/22/2019 04:14 AM 45.86 45.14 44.42 66.38 44.42 95.0 Not Reported 3.13 NE 3.58 E 4.25 NE x x Other     x x x x x 1.24 Clear
03/22/2019 04:15 AM 45.86 45.14 44.24 66.38 44.42 94.0 Not Reported 3.36 NE 3.58 NE 4.25 NE x x Other     x x x x x 1.24 Clear
03/22/2019 04:16 AM 45.86 44.96 44.24 66.38 44.42 94.0 Not Reported 3.36 E 2.91 E 4.47 E x x Other     x x x x x 1.24 Clear
03/22/2019 04:17 AM 45.86 45.14 44.42 66.38 44.42 95.0 Not Reported 3.36 E 2.68 E 4.47 E x x Other     x x x x x 1.24 Clear
03/22/2019 04:18 AM 45.86 45.14 44.42 66.38 44.42 94.0 Not Reported 3.36 E 3.36 E 4.47 E x x Other     x x x x x 1.24 Clear
03/22/2019 04:19 AM 45.86 45.32 44.42 66.38 44.42 95.0 Not Reported 3.13 E 2.24 E 4.47 E x x Other     x x x x x 1.24 Clear
03/22/2019 04:20 AM 46.04 45.32 44.60 66.38 44.42 94.0 Not Reported 2.91 E 2.24 E 4.47 E x x Other     x x x x x 1.24 Clear
03/22/2019 04:21 AM 45.86 45.14 44.42 66.38 44.42 94.0 Not Reported 2.91 E 2.24 NE 4.47 E x x Other     x x x x x 1.24 Clear
03/22/2019 04:22 AM 46.04 45.32 44.60 66.38 44.42 95.0 Not Reported 2.68 NE 1.79 E 4.47 E x x Other     x x x x x 1.24 Clear
03/22/2019 04:23 AM 46.04 45.32 44.60 66.38 44.42 94.0 Not Reported 2.01 NE 0.67 SE 4.47 E x x Other     x x x x x 1.24 Clear
03/22/2019 04:24 AM 46.04 45.32 44.60 66.38 44.42 94.0 Not Reported 1.57 E 1.12 N 4.47 E x x Other     x x x x x 1.24 Clear
03/22/2019 04:25 AM 46.22 45.50 44.78 66.38 44.42 94.0 Not Reported 1.57 E 1.57 E 4.03 E x x Other     x x x x x 1.24 Clear
03/22/2019 04:26 AM 46.40 45.68 44.78 66.38 44.42 94.0 Not Reported 1.57 NE 2.01 NE 4.03 E x x Other     x x x x x 1.24 Clear
03/22/2019 04:28 AM 46.40 45.50 44.60 66.38 44.42 93.0 Not Reported 1.34 W 1.12 NE 4.25 NW x x Other     x x x x x 1.24 Clear
03/22/2019 04:29 AM 46.40 45.50 44.60 66.38 44.42 93.0 Not Reported 1.12 NE 2.01 SW 4.25 NW x x Other     x x x x x 1.24 Clear
03/22/2019 04:30 AM 46.40 45.50 44.60 66.38 44.42 93.0 Not Reported 1.12 NW 1.34 N 4.25 NW x x Other     x x x x x 1.24 Clear
03/22/2019 04:32 AM 46.58 45.68 44.60 66.38 44.42 93.0 Not Reported 1.79 N 2.01 NE 4.25 NW x x Other     x x x x x 1.24 Clear
03/22/2019 04:33 AM 46.76 45.68 44.78 66.38 44.42 93.0 Not Reported 1.79 NE 1.34 E 4.25 NW x x Other     x x x x x 1.24 Clear
03/22/2019 04:34 AM 46.94 46.04 44.96 66.38 44.42 93.0 Not Reported 2.24 E 2.68 E 4.25 NW x x Other     x x x x x 1.24 Clear
03/22/2019 04:35 AM 46.94 46.04 44.96 66.38 44.42 93.0 Not Reported 2.01 E 1.12 NE 4.25 NW x x Other     x x x x x 1.24 Clear
03/22/2019 04:36 AM 46.94 46.04 44.96 66.38 44.42 93.0 Not Reported 2.01 E 2.68 E 4.03 NW x x Other     x x x x x 1.24 Clear
03/22/2019 04:37 AM 46.94 46.04 44.96 66.38 44.42 93.0 Not Reported 2.24 E 0.89 NE 4.03 NW x x Other     x x x x x 1.24 Clear
03/22/2019 04:38 AM 46.94 45.86 44.78 66.38 44.42 92.0 Not Reported 2.01 NE 2.46 E 4.03 NW x x Other     x x x x x 1.24 Clear
03/22/2019 04:39 AM 46.76 45.86 44.60 66.38 44.42 92.0 Not Reported 2.24 E 2.68 E 4.03 NW x x Other     x x x x x 1.24 Clear
03/22/2019 04:40 AM 46.76 45.68 44.60 66.38 44.42 92.0 Not Reported 2.68 E 2.24 E 4.03 E x x Other     x x x x x 1.24 Clear
03/22/2019 04:41 AM 46.76 45.68 44.78 66.38 44.42 93.0 Not Reported 2.91 E 3.36 E 4.03 E x x Other     x x x x x 1.24 Clear
03/22/2019 04:42 AM 46.76 45.86 44.78 66.38 44.42 93.0 Not Reported 2.68 E 2.91 E 4.03 E x x Other     x x x x x 1.24 Clear
03/22/2019 04:43 AM 46.76 45.86 44.96 66.38 44.42 93.0 Not Reported 2.46 E 2.68 E 4.03 E x x Other     x x x x x 1.24 Clear
03/22/2019 04:44 AM 46.76 45.86 44.96 66.38 44.42 93.0 Not Reported 2.01 E 0.89 E 4.03 E x x Other     x x x x x 1.24 Clear
03/22/2019 04:45 AM 46.76 45.86 44.78 66.38 44.42 93.0 Not Reported 2.24 E 4.03 E 4.03 E x x Other     x x x x x 1.24 Clear
03/22/2019 04:46 AM 46.76 45.86 44.78 66.38 44.42 93.0 Not Reported 2.46 E 2.46 E 4.03 E x x Other     x x x x x 1.24 Clear
03/22/2019 04:47 AM 46.76 45.86 44.96 66.38 44.42 93.0 Not Reported 2.01 E 0.89 S 4.03 E x x Other     x x x x x 1.24 Clear
03/22/2019 04:48 AM 46.76 45.86 44.96 66.38 44.42 93.0 Not Reported 1.57 E 0.45 NE 4.03 E x x Other     x x x x x 1.24 Clear
03/22/2019 04:49 AM 46.94 45.86 44.96 66.38 44.42 93.0 Not Reported 1.34 NW 0.67 W 4.03 E x x Other     x x x x x 1.24 Clear
03/22/2019 04:50 AM 46.94 45.86 44.78 66.38 44.42 92.0 Not Reported 1.79 NW 3.36 W 4.25 W x x Other     x x x x x 1.24 Clear
03/22/2019 04:51 AM 47.12 45.86 44.60 66.38 44.42 91.0 Not Reported 2.46 NW 2.24 NW 4.25 W x x Other     x x x x x 1.24 Clear
03/22/2019 04:52 AM 47.12 45.68 44.24 66.38 44.42 90.0 Not Reported 2.24 NW 2.01 NW 4.25 W x x Other     x x x x x 1.24 Clear
03/22/2019 04:53 AM 47.12 45.86 44.42 66.38 44.42 90.0 Not Reported 1.34 W 1.34 NW 4.25 W x x Other     x x x x x 1.24 Clear
03/22/2019 04:54 AM 47.30 46.04 44.60 66.38 44.42 90.0 Not Reported 1.12 NW 0.45 SW 4.25 W x x Other     x x x x x 1.24 Clear
03/22/2019 04:55 AM 47.48 45.86 44.42 66.38 44.42 89.0 Not Reported 1.12 N 1.79 NW 4.25 W x x Other     x x x x x 1.24 Clear
03/22/2019 04:56 AM 47.48 46.04 44.42 66.38 44.42 89.0 Not Reported 1.34 NW 1.79 NW 4.25 W x x Other     x x x x x 1.24 Clear
03/22/2019 04:57 AM 47.48 45.86 44.24 66.38 44.42 88.0 Not Reported 1.79 NW 0.89 N 4.25 W x x Other     x x x x x 1.24 Clear
03/22/2019 04:58 AM 47.30 45.68 43.88 66.38 44.42 88.0 Not Reported 2.24 NW 1.34 N 4.25 W x x Other     x x x x x 1.24 Clear
03/22/2019 04:59 AM 47.12 45.32 43.70 66.38 44.42 88.0 Not Reported 2.01 W 2.01 W 4.25 W x x Other     x x x x x 1.24 Clear
03/22/2019 05:00 AM 46.94 45.32 43.70 66.38 44.42 88.0 Not Reported 1.79 W 1.57 NW 3.80 NW x x Other     x x x x x 1.24 Clear
03/22/2019 05:01 AM 46.76 45.14 43.52 66.38 44.42 88.0 Not Reported 1.79 W 1.57 NW 3.80 NW x x Other     x x x x x 1.24 Clear
03/22/2019 05:02 AM 46.58 44.96 43.34 66.38 44.42 88.0 Not Reported 1.57 W 2.01 W 3.80 NW x x Other     x x x x x 1.24 Clear
03/22/2019 05:03 AM 46.22 44.78 43.34 66.38 44.42 89.0 Not Reported 1.79 W 1.79 W 3.80 NW x x Other     x x x x x 1.24 Clear
03/22/2019 05:04 AM 46.04 44.60 43.16 66.38 44.42 90.0 Not Reported 2.01 W 2.01 W 3.80 NW x x Other     x x x x x 1.24 Clear
03/22/2019 05:05 AM 45.86 44.60 43.34 66.38 44.42 91.0 Not Reported 2.01 W 2.46 W 3.80 NW x x Other     x x x x x 1.24 Clear
03/22/2019 05:06 AM 45.68 44.60 43.52 66.38 44.42 92.0 Not Reported 2.01 W 1.79 W 3.80 NW x x Other     x x x x x 1.24 Clear
03/22/2019 05:07 AM 45.50 44.60 43.52 66.38 44.42 92.0 Not Reported 1.79 W 1.79 SW 3.80 NW x x Other     x x x x x 1.24 Clear
03/22/2019 05:08 AM 45.50 44.60 43.70 66.38 44.42 93.0 Not Reported 1.79 SW 1.79 W 3.80 NW x x Other     x x x x x 1.24 Clear
03/22/2019 05:09 AM 45.32 44.60 43.70 66.38 44.42 94.0 Not Reported 1.79 SW 1.34 SW 2.68 NW x x Other     x x x x x 1.24 Clear
03/22/2019 05:10 AM 45.32 44.42 43.70 66.38 44.42 94.0 Not Reported 1.79 W 1.34 SW 2.91 W x x Other     x x x x x 1.24 Clear
03/22/2019 05:11 AM 45.32 44.60 44.06 66.38 44.42 95.0 Not Reported 1.79 W 1.79 W 2.91 W x x Other     x x x x x 1.24 Clear
03/22/2019 05:12 AM 45.32 44.60 44.06 66.38 44.42 95.0 Not Reported 1.79 W 1.57 SW 3.36 W x x Other     x x x x x 1.24 Clear
03/22/2019 05:13 AM 45.32 44.60 44.06 66.38 44.42 95.0 Not Reported 1.79 W 1.57 W 3.36 W x x Other     x x x x x 1.24 Clear
03/22/2019 05:14 AM 45.32 44.60 44.06 66.38 44.42 95.0 Not Reported 1.79 W 1.34 W 3.36 W x x Other     x x x x x 1.24 Clear
03/22/2019 05:15 AM 45.14 44.60 44.06 66.38 44.42 95.0 Not Reported 1.79 W 2.24 W 3.36 W x x Other     x x x x x 1.24 Clear
03/22/2019 05:16 AM 45.14 44.60 44.06 66.38 44.42 95.0 Not Reported 2.24 W 1.79 W 3.36 NW x x Other     x x x x x 1.24 Clear
03/22/2019 05:17 AM 45.32 44.78 44.06 66.38 44.42 95.0 Not Reported 2.24 W 2.24 W 3.36 NW x x Other     x x x x x 1.24 Clear
03/22/2019 05:18 AM 45.14 44.60 43.88 66.38 44.42 95.0 Not Reported 2.01 W 2.24 W 3.36 NW x x Other     x x x x x 1.24 Clear
03/22/2019 05:19 AM 45.14 44.60 43.88 66.38 44.42 95.0 Not Reported 2.01 W 1.79 W 3.36 NW x x Other     x x x x x 1.24 Clear
03/22/2019 05:20 AM 45.14 44.60 44.06 66.38 44.42 95.0 Not Reported 1.79 W 1.12 W 3.36 NW x x Other     x x x x x 1.24 Clear
03/22/2019 05:21 AM 45.14 44.60 43.88 66.38 44.42 95.0 Not Reported 2.01 W 4.47 W 6.71 W x x Other     x x x x x 1.24 Clear
03/22/2019 05:22 AM 45.32 44.78 44.06 66.38 44.42 95.0 Not Reported 2.46 W 1.34 W 6.71 W x x Other     x x x x x 1.24 Clear
03/22/2019 05:23 AM 45.32 44.60 44.06 66.38 44.42 95.0 Not Reported 2.01 W 1.79 W 6.71 W x x Other     x x x x x 1.24 Clear
03/22/2019 05:24 AM 45.50 44.78 44.24 66.38 44.42 95.0 Not Reported 2.91 W 3.13 W 7.83 NW x x Other     x x x x x 1.24 Clear
03/22/2019 05:25 AM 45.68 44.96 44.24 66.38 44.42 94.0 Not Reported 4.03 NW 2.91 NW 7.83 NW x x Other     x x x x x 1.24 Clear
03/22/2019 05:26 AM 45.86 44.96 44.06 66.38 44.42 93.0 Not Reported 3.58 NW 5.14 NW 7.83 NW x x Other     x x x x x 1.24 Clear
03/22/2019 05:27 AM 45.86 44.96 43.88 66.38 44.42 93.0 Not Reported 3.58 W 3.13 W 7.83 NW x x Other     x x x x x 1.24 Clear
03/22/2019 05:28 AM 45.86 44.78 43.88 66.38 44.42 92.0 Not Reported 3.13 W 1.57 W 7.83 NW x x Other     x x x x x 1.24 Clear
03/22/2019 05:29 AM 45.86 44.78 43.70 66.38 44.42 92.0 Not Reported 2.68 W 2.01 NW 7.83 NW x x Other     x x x x x 1.24 Clear
03/22/2019 05:30 AM 45.68 44.78 43.70 66.38 44.42 93.0 Not Reported 2.24 W 1.34 W 7.83 NW x x Other     x x x x x 1.24 Clear
03/22/2019 05:32 AM 45.50 44.60 43.52 66.38 44.42 93.0 Not Reported 1.79 NW 2.24 NW 7.83 NW x x Other     x x x x x 1.24 Clear
03/22/2019 05:33 AM 45.68 44.60 43.70 66.38 44.42 92.0 Not Reported 2.46 NW 2.01 W 5.59 NW x x Other     x x x x x 1.24 Clear
03/22/2019 05:34 AM 45.68 44.78 43.70 66.38 44.42 92.0 Not Reported 2.24 NW 2.46 W 5.59 NW x x Other     x x x x x 1.24 Clear
03/22/2019 05:35 AM 45.68 44.78 43.52 66.38 44.42 92.0 Not Reported 2.01 NW 1.79 W 5.59 NW x x Other     x x x x x 1.24 Clear
03/22/2019 05:36 AM 45.86 44.78 43.70 66.38 44.42 92.0 Not Reported 2.24 W 1.79 N 5.37 NW x x Other     x x x x x 1.24 Clear
03/22/2019 05:37 AM 45.86 44.78 43.70 66.38 44.42 92.0 Not Reported 1.79 NW 1.79 NE 5.37 NW x x Other     x x x x x 1.24 Clear
03/22/2019 05:38 AM 46.04 44.78 43.52 66.38 44.42 91.0 Not Reported 2.24 W 1.79 W 5.37 NW x x Other     x x x x x 1.24 Clear
03/22/2019 05:39 AM 46.22 44.96 43.52 66.38 44.42 90.0 Not Reported 3.13 W 2.01 NW 6.04 NW x x Other     x x x x x 1.24 Clear
03/22/2019 05:40 AM 46.22 44.78 43.34 66.38 44.42 89.0 Not Reported 3.36 W 3.13 NW 6.04 NW x x Other     x x x x x 1.24 Clear
03/22/2019 05:41 AM 46.40 44.96 43.34 66.38 44.42 89.0 Not Reported 3.13 W 3.58 W 6.04 NW x x Other     x x x x x 1.24 Clear
03/22/2019 05:42 AM 46.40 44.96 43.34 66.38 44.42 89.0 Not Reported 2.68 NW 2.68 N 6.04 NW x x Other     x x x x x 1.24 Clear
03/22/2019 05:43 AM 46.58 45.14 43.52 66.38 44.42 89.0 Not Reported 2.68 W 1.34 N 6.04 NW x x Other     x x x x x 1.24 Clear
03/22/2019 05:44 AM 46.76 45.14 43.52 66.38 44.42 88.0 Not Reported 2.46 W 3.36 W 6.04 NW x x Other     x x x x x 1.24 Clear
03/22/2019 05:45 AM 46.76 44.96 43.16 66.38 44.42 87.0 Not Reported 2.68 NW 1.34 N 6.04 NW x x Other     x x x x x 1.24 Clear
03/22/2019 05:46 AM 46.58 44.96 42.98 66.38 44.42 87.0 Not Reported 2.68 NW 2.24 NW 6.04 NW x x Other     x x x x x 1.24 Clear
03/22/2019 05:47 AM 46.58 44.96 43.16 66.38 44.42 87.0 Not Reported 2.01 N 1.57 NE 6.04 NW x x Other     x x x x x 1.24 Clear
03/22/2019 05:48 AM 46.58 44.78 42.98 66.38 44.42 87.0 Not Reported 1.79 NE 2.01 NW 5.59 W x x Other     x x x x x 1.24 Clear
03/22/2019 05:49 AM 46.58 44.78 42.98 66.38 44.42 87.0 Not Reported 2.24 NE 2.46 W 5.59 W x x Other     x x x x x 1.24 Clear
03/22/2019 05:50 AM 46.58 44.96 43.16 66.38 44.42 87.0 Not Reported 2.24 NW 2.68 SW 5.59 W x x Other     x x x x x 1.24 Clear
03/22/2019 05:51 AM 46.76 44.96 42.98 66.38 44.42 87.0 Not Reported 2.24 W 2.46 NW 5.59 W x x Other     x x x x x 1.24 Clear
03/22/2019 05:52 AM 46.76 44.96 42.98 66.38 44.42 87.0 Not Reported 2.68 W 2.46 W 5.82 W x x Other     x x x x x 1.24 Clear
03/22/2019 05:53 AM 46.76 44.78 42.98 66.38 44.42 87.0 Not Reported 2.24 W 2.46 NW 5.82 W x x Other     x x x x x 1.24 Clear
03/22/2019 05:54 AM 46.58 44.78 42.98 66.38 44.42 87.0 Not Reported 2.24 W 1.34 W 5.82 W x x Other     x x x x x 1.24 Clear
03/22/2019 05:55 AM 46.40 44.60 42.80 66.38 44.42 87.0 Not Reported 2.46 W 1.34 SW 5.82 W x x Other     x x x x x 1.24 Clear
03/22/2019 05:56 AM 46.22 44.60 42.80 66.38 44.42 87.0 Not Reported 1.79 W 1.57 SW 5.82 W x x Other     x x x x x 1.24 Clear
03/22/2019 05:57 AM 46.04 44.42 42.80 66.38 44.42 88.0 Not Reported 1.57 SW 1.57 W 5.82 W x x Other     x x x x x 1.24 Clear
03/22/2019 05:58 AM 45.68 44.24 42.62 66.38 44.42 89.0 Not Reported 1.79 SW 1.12 SW 5.82 W x x Other     x x x x x 1.24 Clear
03/22/2019 05:59 AM 45.50 44.24 42.80 66.38 44.42 90.0 Not Reported 1.57 SW 1.34 SW 5.82 W x x Other     x x x x x 1.24 Clear
03/22/2019 06:00 AM 45.50 44.24 42.98 66.38 44.42 91.0 Not Reported 1.57 SW 1.79 SW 5.82 W x x Other     x x x x x 1.24 Clear
03/22/2019 06:01 AM 45.32 44.24 43.16 66.38 44.42 92.0 Not Reported 1.57 SW 0.89 W 5.82 W x x Other     x x x x x 1.24 Clear
03/22/2019 06:02 AM 45.32 44.24 43.16 66.38 44.42 92.0 Not Reported 1.57 SW 1.57 W 5.14 W x x Other     x x x x x 1.24 Clear
03/22/2019 06:03 AM 45.32 44.42 43.52 66.38 44.42 93.0 Not Reported 2.01 SW 3.36 W 6.49 NW x x Other     x x x x x 1.24 Clear
03/22/2019 06:04 AM 45.32 44.42 43.52 66.38 44.42 93.0 Not Reported 2.46 W 4.25 W 6.49 NW x x Other     x x x x x 1.24 Clear
03/22/2019 06:05 AM 45.32 44.42 43.70 66.38 44.42 94.0 Not Reported 2.24 W 1.34 W 6.49 NW x x Other     x x x x x 1.24 Clear
03/22/2019 06:07 AM 45.32 44.60 43.88 66.38 44.42 95.0 Not Reported 1.57 W 1.79 W 6.49 NW x x Other     x x x x x 1.24 Clear
03/22/2019 06:08 AM 45.32 44.60 44.06 66.38 44.42 95.0 Not Reported 1.57 SW 1.34 W 6.49 NW x x Other     x x x x x 1.24 Clear
03/22/2019 06:09 AM 45.32 44.78 44.06 66.38 44.42 95.0 Not Reported 2.01 W 3.58 NW 6.49 NW x x Other     x x x x x 1.24 Clear
03/22/2019 06:10 AM 45.14 44.60 44.06 66.38 44.42 95.0 Not Reported 2.24 W 2.01 SW 6.49 NW x x Other     x x x x x 1.24 Clear
03/22/2019 06:11 AM 45.14 44.60 43.88 66.38 44.42 95.0 Not Reported 2.46 W 1.12 NW 6.49 NW x x Other     x x x x x 1.24 Clear
03/22/2019 06:12 AM 44.96 44.42 43.88 66.38 44.42 95.0 Not Reported 2.68 W 4.25 W 5.59 W x x Other     x x x x x 1.24 Clear
03/22/2019 06:13 AM 44.96 44.42 43.88 66.38 44.42 96.0 Not Reported 2.91 W 2.01 SW 5.59 W x x Other     x x x x x 1.24 Clear
03/22/2019 06:14 AM 44.78 44.24 43.52 66.38 44.42 95.0 Not Reported 2.24 SW 0.89 SW 5.59 W x x Other     x x x x x 1.24 Clear
03/22/2019 06:15 AM 44.60 44.24 43.52 66.38 44.42 96.0 Not Reported 1.34 SW 0.89 SW 5.59 W x x Other     x x x x x 1.24 Clear
03/22/2019 06:16 AM 44.60 44.24 43.70 66.38 44.42 96.0 Not Reported 1.12 SW 1.57 SW 5.59 W x x Other     x x x x x 1.24 Clear
03/22/2019 06:17 AM 44.60 44.06 43.70 66.38 44.42 96.0 Not Reported 1.57 S 1.57 SW 5.59 W x x Other     x x x x x 1.24 Clear
03/22/2019 06:18 AM 44.60 44.06 43.70 66.38 44.42 97.0 Not Reported 1.57 SW 1.79 SW 5.59 W x x Other     x x x x x 1.24 Clear
03/22/2019 06:19 AM 44.60 44.24 43.70 66.38 44.42 97.0 Not Reported 1.34 SW 1.34 SW 5.59 W x x Other     x x x x x 1.24 Clear
03/22/2019 06:20 AM 44.42 44.06 43.70 66.38 44.42 97.0 Not Reported 1.34 SW 2.01 NW 5.59 W x x Other     x x x x x 1.24 Clear
03/22/2019 06:21 AM 44.42 44.24 43.88 66.38 44.42 97.0 Not Reported 1.12 SW 1.34 S 5.59 W x x Other     x x x x x 1.24 Clear
03/22/2019 06:22 AM 44.42 44.24 43.88 66.38 44.42 97.0 Not Reported 1.34 S 0.67 SW 3.36 W x x Other     x x x x x 1.24 Clear
03/22/2019 06:23 AM 44.42 44.06 43.70 66.38 44.42 97.0 Not Reported 1.34 S 1.12 SW 3.36 W x x Other     x x x x x 1.24 Clear
03/22/2019 06:24 AM 44.42 44.06 43.70 66.38 44.42 97.0 Not Reported 1.34 SW 1.34 SW 3.36 W x x Other     x x x x x 1.24 Clear
03/22/2019 06:25 AM 44.42 44.06 43.70 66.38 44.42 97.0 Not Reported 1.57 SW 1.57 SW 3.80 W x x Other     x x x x x 1.24 Clear
03/22/2019 06:26 AM 44.24 43.88 43.52 66.38 44.24 97.0 Not Reported 1.57 SW 1.12 SW 3.80 W x x Other     x x x x x 1.24 Clear
03/22/2019 06:27 AM 44.06 43.70 43.16 66.38 44.06 97.0 Not Reported 1.57 SW 2.46 SW 3.80 W x x Other     x x x x x 1.24 Clear
03/22/2019 06:28 AM 43.88 43.52 43.16 66.38 43.88 97.0 Not Reported 1.79 SW 2.24 SW 3.80 W x x Other     x x x x x 1.24 Clear
03/22/2019 06:29 AM 43.88 43.52 43.34 66.38 43.88 98.0 Not Reported 1.79 SW 0.89 SW 3.80 W x x Other     x x x x x 1.24 Clear
03/22/2019 06:30 AM 43.70 43.52 43.16 66.38 43.70 98.0 Not Reported 1.34 SW 1.34 S 3.80 W x x Other     x x x x x 1.24 Clear
03/22/2019 06:31 AM 43.70 43.52 43.16 66.38 43.70 98.0 Not Reported 1.12 S 0.89 S 3.80 W x x Other     x x x x x 1.24 Clear
03/22/2019 06:32 AM 43.70 43.34 43.16 66.38 43.70 98.0 Not Reported 0.89 S 1.12 SW 3.80 W x x Other     x x x x x 1.24 Clear
03/22/2019 06:33 AM 43.52 43.34 42.98 66.38 43.52 98.0 Not Reported 1.12 S 2.24 SW 3.80 W x x Other     x x x x x 1.24 Clear
03/22/2019 06:34 AM 43.52 43.52 42.98 66.38 43.52 98.0 Not Reported 1.34 S 1.34 S 2.68 S x x Other     x x x x x 1.24 Clear
03/22/2019 06:35 AM 43.70 43.52 43.16 66.38 43.52 98.0 Not Reported 1.34 S 1.79 SW 2.68 S x x Other     x x x x x 1.24 Clear
03/22/2019 06:36 AM 43.52 43.34 42.98 66.38 43.52 98.0 Not Reported 1.34 S 1.57 SW 2.68 S x x Other     x x x x x 1.24 Clear
03/22/2019 06:37 AM 43.52 43.34 42.98 66.38 43.52 98.0 Not Reported 1.57 SW 2.46 S 3.58 SW x x Other     x x x x x 1.24 Clear
03/22/2019 06:38 AM 43.52 43.52 43.34 66.38 43.52 99.0 Not Reported 1.57 SW 1.34 S 3.58 SW x x Other     x x x x x 1.24 Clear
03/22/2019 06:39 AM 43.70 43.52 43.34 66.38 43.52 99.0 Not Reported 1.12 SW 0.89 SW 3.58 SW x x Other     x x x x x 1.24 Clear
03/22/2019 06:40 AM 43.88 43.88 43.88 66.38 43.52 x Not Reported 1.79 S 3.36 W 8.95 NW x x Other     x x x x x 1.24 Clear
03/22/2019 06:41 AM 44.06 44.06 44.06 66.38 43.52 x Not Reported 2.01 NW 1.34 SW 8.95 NW x x Other     x x x x x 1.24 Clear
03/22/2019 06:42 AM 44.42 44.42 44.42 66.38 43.52 x Not Reported 1.79 W 1.57 SW 8.95 NW x x Other     x x x x x 1.24 Clear
03/22/2019 06:43 AM 44.42 44.60 44.60 66.38 43.52 x Not Reported 2.68 W 1.57 NW 8.95 NW x x Other     x x x x x 1.24 Clear
03/22/2019 06:44 AM 44.78 44.96 44.96 66.38 43.52 x Not Reported 3.13 W 2.68 W 8.95 NW x x Other     x x x x x 1.24 Clear
03/22/2019 06:45 AM 44.96 45.14 44.96 66.38 43.52 x Not Reported 2.91 W 2.46 W 8.95 NW x x Other     x x x x x 1.24 Clear
03/22/2019 06:47 AM 45.32 45.14 44.96 66.38 43.52 98.0 Not Reported 3.80 W 2.01 NW 8.95 NW x x Other     x x x x x 1.24 Clear
03/22/2019 06:48 AM 45.50 45.14 44.78 66.38 43.52 97.0 Not Reported 3.58 NW 4.92 W 8.95 NW x x Other     x x x x x 1.24 Clear
03/22/2019 06:50 AM 45.86 45.32 44.78 66.38 43.52 96.0 Not Reported 3.36 NW 1.57 NE 8.28 W x x Other     x x x x x 1.24 Clear
03/22/2019 06:52 AM 45.86 44.96 43.88 66.38 43.52 93.0 Not Reported 1.79 NE 2.01 NE 8.28 W x x Other     x x x x x 1.24 Clear
03/22/2019 06:53 AM 45.68 44.60 43.52 66.38 43.52 92.0 Not Reported 2.24 E 2.46 E 8.28 W x x Other     x x x x x 1.24 Clear
03/22/2019 06:54 AM 45.50 44.42 43.34 66.38 43.52 92.0 Not Reported 2.46 E 3.58 E 8.28 W x x Other     x x x x x 1.24 Clear
03/22/2019 06:55 AM 45.50 44.42 43.34 66.38 43.52 92.0 Not Reported 2.68 E 2.91 N 8.28 W x x Other     x x x x x 1.24 Clear
03/22/2019 06:56 AM 45.50 44.42 43.34 66.38 43.52 92.0 Not Reported 2.46 E 2.68 N 8.28 W x x Other     x x x x x 1.24 Clear
03/22/2019 06:57 AM 45.68 44.42 43.34 66.38 43.52 91.0 Not Reported 2.24 NE 0.89 SE 8.28 W x x Other     x x x x x 1.24 Clear
03/22/2019 06:58 AM 45.68 44.42 43.16 66.38 43.52 91.0 Not Reported 1.79 E 2.46 NE 8.28 W x x Other     x x x x x 1.24 Clear
03/22/2019 06:59 AM 45.32 43.88 42.44 66.38 43.52 89.0 Not Reported 1.79 NE 2.91 E 6.04 E x x Other     x x x x x 1.24 Clear
03/22/2019 07:00 AM 44.96 43.52 42.26 66.38 43.52 91.0 Not Reported 2.24 NE 2.46 NE 6.04 E x x Other     x x x x x 1.24 Clear
03/22/2019 07:01 AM 44.60 43.52 42.26 66.38 43.52 91.0 Not Reported 2.91 NE 3.80 NE 6.04 E x x Other     x x x x x 1.24 Clear
03/22/2019 07:02 AM 44.24 43.16 41.90 66.38 43.52 91.0 Not Reported 3.58 NE 4.25 NE 6.04 E x x Other     x x x x x 1.24 Clear
03/22/2019 07:03 AM 44.06 42.80 41.72 66.38 43.52 91.0 Not Reported 3.58 NE 4.03 NE 6.04 E x x Other     x x x x x 1.24 Clear
03/22/2019 07:04 AM 43.70 42.80 41.54 66.38 43.52 92.0 Not Reported 4.03 NE 3.13 NE 6.49 E x x Other     x x x x x 1.24 Clear
03/22/2019 07:05 AM 43.52 42.44 41.36 66.38 43.52 92.0 Not Reported 3.58 E 4.03 E 6.49 E x x Other     x x x x x 1.24 Clear
03/22/2019 07:06 AM 43.52 42.62 41.54 66.38 43.52 93.0 Not Reported 2.68 NE 2.01 SW 6.49 E x x Other     x x x x x 1.24 Clear
03/22/2019 07:07 AM 43.52 42.80 41.90 66.38 43.52 93.0 Not Reported 2.01 E 1.79 E 6.49 E x x Other     x x x x x 1.24 Clear
03/22/2019 07:08 AM 43.70 42.98 42.08 66.38 43.52 94.0 Not Reported 1.57 E 2.24 NE 6.49 E x x Other     x x x x x 1.24 Clear
03/22/2019 07:09 AM 43.70 42.98 42.08 66.38 43.52 94.0 Not Reported 1.79 NE 1.57 E 6.49 E x x Other     x x x x x 1.24 Clear
03/22/2019 07:10 AM 43.88 43.16 42.26 66.38 43.52 94.0 Not Reported 1.79 NE 4.92 NW 6.49 E x x Other     x x x x x 1.24 Clear
03/22/2019 07:11 AM 44.06 43.34 42.44 66.38 43.52 94.0 Not Reported 2.68 W 3.36 W 6.49 E x x Other     x x x x x 1.24 Clear
03/22/2019 07:12 AM 44.24 43.52 42.62 66.38 43.52 94.0 Not Reported 3.13 W 6.26 NW 6.49 E x x Other     x x x x x 1.24 Clear
03/22/2019 07:13 AM 44.24 43.52 42.62 66.38 43.52 93.0 Not Reported 3.13 W 3.80 NW 6.26 E x x Other     x x x x x 1.24 Clear
03/22/2019 07:14 AM 44.24 43.52 42.62 66.38 43.52 93.0 Not Reported 4.25 W 2.68 W 8.50 W x x Other     x x x x x 1.24 Clear
03/22/2019 07:15 AM 44.24 43.52 42.62 66.38 43.52 94.0 Not Reported 4.70 W 3.58 W 8.50 W x x Other     x x x x x 1.24 Clear
03/22/2019 07:16 AM 44.42 43.70 42.80 66.38 43.52 93.0 Not Reported 4.25 W 4.25 NW 8.50 W x x Other     x x x x x 1.24 Clear
03/22/2019 07:17 AM 44.60 43.70 42.80 66.38 43.52 93.0 Not Reported 3.36 W 2.46 W 8.50 W x x Other     x x x x x 1.24 Clear
03/22/2019 07:18 AM 44.42 43.52 42.62 66.38 43.52 93.0 Not Reported 2.46 W 3.80 SW 8.50 W x x Other     x x x x x 1.24 Clear
03/22/2019 07:19 AM 44.42 43.52 42.62 66.38 43.52 93.0 Not Reported 2.24 W 1.57 SW 8.50 W x x Other     x x x x x 1.24 Clear
03/22/2019 07:20 AM 44.24 43.52 42.62 66.38 43.52 94.0 Not Reported 1.57 W 1.79 W 8.50 W x x Other     x x x x x 1.24 Clear
03/22/2019 07:21 AM 44.24 43.52 42.62 66.38 43.52 94.0 Not Reported 1.57 W 1.34 W 8.50 W x x Other     x x x x x 1.24 Clear
03/22/2019 07:23 AM 44.42 43.70 42.98 66.38 43.52 94.0 Not Reported 1.57 SW 1.34 SW 6.93 W x x Other     x x x x x 1.24 Clear
03/22/2019 07:24 AM 44.42 43.70 42.98 66.38 43.52 94.0 Not Reported 1.34 SW 2.24 SW 6.26 NW x x Other     x x x x x 1.24 Clear
03/22/2019 07:25 AM 44.42 43.70 42.80 66.38 43.52 94.0 Not Reported 1.79 SW 2.01 W 5.37 NW x x Other     x x x x x 1.24 Clear
03/22/2019 07:26 AM 44.60 43.88 43.16 66.38 43.52 94.0 Not Reported 2.24 W 2.01 W 5.14 NW x x Other     x x x x x 1.24 Clear
03/22/2019 07:27 AM 44.78 44.06 43.34 66.38 43.52 94.0 Not Reported 2.01 W 1.79 NW 5.14 NW x x Other     x x x x x 1.24 Clear
03/22/2019 07:28 AM 45.14 44.42 43.70 66.38 43.52 94.0 Not Reported 1.79 NE 2.68 NE 5.14 NW x x Other     x x x x x 1.24 Clear
03/22/2019 07:29 AM 45.50 44.78 43.88 66.38 43.52 93.0 Not Reported 2.91 E 4.03 E 5.82 E x x Other     x x x x x 1.24 Clear
03/22/2019 07:30 AM 45.86 44.78 43.70 66.38 43.52 92.0 Not Reported 3.13 E 1.79 SE 5.82 E x x Other     x x x x x 1.24 Clear
03/22/2019 07:31 AM 45.86 44.78 43.52 66.38 43.52 91.0 Not Reported 2.68 E 2.24 NE 5.82 E x x Other     x x x x x 1.24 Clear
03/22/2019 07:32 AM 46.04 44.78 43.52 66.38 43.52 91.0 Not Reported 2.68 E 3.36 N 6.26 NW x x Other     x x x x x 1.24 Clear
03/22/2019 07:33 AM 46.22 44.96 43.52 66.38 43.52 90.0 Not Reported 2.68 NE 2.01 N 6.26 NW x x Other     x x x x x 1.24 Clear
03/22/2019 07:34 AM 46.22 44.78 43.52 66.38 43.52 90.0 Not Reported 2.24 E 2.24 NE 6.26 NW x x Other     x x x x x 1.24 Clear
03/22/2019 07:35 AM 46.22 44.78 43.34 66.38 43.52 90.0 Not Reported 2.01 E 1.12 E 6.26 NW x x Other     x x x x x 1.24 Clear
03/22/2019 07:37 AM 46.40 44.96 43.34 66.38 43.52 89.0 Not Reported 2.46 E 1.34 NE 6.26 NW x x Other     x x x x x 1.24 Clear
03/22/2019 07:38 AM 46.40 44.78 43.34 66.38 43.52 89.0 Not Reported 2.46 E 2.68 E 6.26 NW x x Other     x x x x x 1.24 Clear
03/22/2019 07:39 AM 46.22 44.78 43.16 66.38 43.52 88.0 Not Reported 2.01 E 3.80 E 6.26 NW x x Other     x x x x x 1.24 Clear
03/22/2019 07:40 AM 46.04 44.60 42.98 66.38 43.52 89.0 Not Reported 2.46 E 1.57 E 6.26 NW x x Other     x x x x x 1.24 Clear
03/22/2019 07:41 AM 46.22 44.60 43.16 66.38 43.52 89.0 Not Reported 2.46 E 2.68 SE 6.26 NW x x Other     x x x x x 1.24 Clear
03/22/2019 07:42 AM 46.04 44.60 42.98 66.38 43.52 89.0 Not Reported 2.01 E 3.13 NE 5.14 E x x Other     x x x x x 1.24 Clear
03/22/2019 07:43 AM 46.04 44.60 43.16 66.38 43.52 89.0 Not Reported 1.79 E 1.79 E 5.14 E x x Other     x x x x x 1.24 Clear
03/22/2019 07:44 AM 46.22 44.78 43.34 66.38 43.52 89.0 Not Reported 2.46 E 3.36 E 5.59 E x x Other     x x x x x 1.24 Clear
03/22/2019 07:45 AM 46.40 44.78 43.16 66.38 43.52 89.0 Not Reported 2.68 E 1.57 E 5.59 E x x Other     x x x x x 1.24 Clear
03/22/2019 07:46 AM 46.40 44.96 43.34 66.38 43.52 89.0 Not Reported 2.24 E 5.37 E 5.59 E x x Other     x x x x x 1.24 Clear
03/22/2019 07:47 AM 46.58 44.96 43.34 66.38 43.52 88.0 Not Reported 2.24 E 2.91 E 5.59 E x x Other     x x x x x 1.24 Clear
03/22/2019 07:48 AM 46.58 44.96 43.34 66.38 43.52 88.0 Not Reported 2.01 E 2.24 S 5.59 E x x Other     x x x x x 1.24 Clear
03/22/2019 07:49 AM 46.58 44.96 43.34 66.38 43.52 89.0 Not Reported 1.79 E 1.57 NE 5.59 E x x Other     x x x x x 1.24 Clear
03/22/2019 07:50 AM 46.58 44.96 43.52 66.38 43.52 89.0 Not Reported 1.79 E 1.57 E 5.59 E x x Other     x x x x x 1.24 Clear
03/22/2019 07:51 AM 46.76 45.32 43.70 66.38 43.52 89.0 Not Reported 1.57 E 0.89 NE 5.59 E x x Other     x x x x x 1.24 Clear
03/22/2019 07:52 AM 46.94 45.50 44.06 66.38 43.52 89.0 Not Reported 2.01 NE 2.01 W 5.59 E x x Other     x x x x x 1.24 Clear
03/22/2019 07:53 AM 47.12 45.68 44.06 66.38 43.52 89.0 Not Reported 2.68 W 1.34 NW 7.61 W x x Other     x x x x x 1.24 Clear
03/22/2019 07:54 AM 47.30 45.68 44.24 66.38 43.52 88.0 Not Reported 3.13 W 2.01 W 7.61 W x x Other     x x x x x 1.24 Clear
03/22/2019 07:55 AM 47.48 45.86 44.24 66.38 43.52 88.0 Not Reported 2.46 W 1.34 SW 7.61 W x x Other     x x x x x 1.24 Clear
03/22/2019 07:56 AM 47.48 45.86 44.06 66.38 43.52 88.0 Not Reported 1.34 SW 0.89 S 7.61 W x x Other     x x x x x 1.24 Clear
03/22/2019 07:57 AM 47.48 45.86 44.24 66.38 43.52 88.0 Not Reported 0.89 SW 0.67 S 7.61 W x x Other     x x x x x 1.24 Clear
03/22/2019 07:58 AM 47.48 45.86 44.06 66.38 43.52 88.0 Not Reported 1.12 SW 0.22 E 7.61 W x x Other     x x x x x 1.24 Clear
03/22/2019 07:59 AM 47.48 45.86 44.24 66.38 43.52 88.0 Not Reported 1.12 SW 1.34 SW 7.61 W x x Other     x x x x x 1.24 Clear
03/22/2019 08:00 AM 47.48 45.86 44.24 66.38 43.52 88.0 Not Reported 1.12 SW 0.89 SW 7.61 W x x Other     x x x x x 1.24 Clear
03/22/2019 08:01 AM 47.48 45.86 44.24 66.38 43.52 89.0 Not Reported 1.12 SW 0.45 S 7.61 W x x Other     x x x x x 1.24 Clear
03/22/2019 08:02 AM 47.48 46.04 44.42 66.38 43.52 89.0 Not Reported 0.89 SW 1.12 W 5.59 W x x Other     x x x x x 1.24 Clear
03/22/2019 08:03 AM 47.48 45.86 44.42 66.38 43.52 89.0 Not Reported 1.34 W 2.91 W 3.80 W x x Other     x x x x x 1.24 Clear
03/22/2019 08:04 AM 47.48 46.04 44.60 66.38 43.52 89.0 Not Reported 2.46 NW 1.12 W 6.49 W x x Other     x x x x x 1.24 Clear
03/22/2019 08:05 AM 47.66 46.22 44.60 66.38 43.52 89.0 Not Reported 2.68 W 6.93 NW 6.49 W x x Other     x x x x x 1.24 Clear
03/22/2019 08:07 AM 48.02 46.40 44.96 66.38 43.52 89.0 Not Reported 3.80 NW 4.70 W 7.61 NW x x Other     x x x x x 1.24 Clear
03/22/2019 08:08 AM 48.02 46.40 44.96 66.38 43.52 89.0 Not Reported 2.91 NW 2.01 SW 7.61 NW x x Other     x x x x x 1.24 Clear
03/22/2019 08:09 AM 48.02 46.40 44.78 66.38 43.52 89.0 Not Reported 2.01 SW 0.45 NW 7.61 NW x x Other     x x x x x 1.24 Clear
03/22/2019 08:10 AM 48.02 46.40 44.96 66.38 43.52 89.0 Not Reported 1.57 SW 1.79 W 7.61 NW x x Other     x x x x x 1.24 Clear
03/22/2019 08:11 AM 48.02 46.40 44.96 66.38 43.52 89.0 Not Reported 1.12 SW 1.12 SW 7.61 NW x x Other     x x x x x 1.24 Clear
03/22/2019 08:12 AM 47.84 46.40 44.96 66.38 43.52 89.0 Not Reported 1.79 SW 1.12 W 7.61 NW x x Other     x x x x x 1.24 Clear
03/22/2019 08:13 AM 47.84 46.40 45.14 66.38 43.52 90.0 Not Reported 2.01 SW 1.79 SW 7.61 NW x x Other     x x x x x 1.24 Clear
03/22/2019 08:14 AM 47.84 46.40 44.96 66.38 43.52 90.0 Not Reported 1.79 SW 1.79 SW 7.61 NW x x Other     x x x x x 1.24 Clear
03/22/2019 08:15 AM 47.84 46.58 45.14 66.38 43.52 90.0 Not Reported 2.01 SW 2.01 SW 7.61 NW x x Other     x x x x x 1.24 Clear
03/22/2019 08:16 AM 47.84 46.58 45.32 66.38 43.52 91.0 Not Reported 1.79 SW 1.34 SW 7.61 NW x x Other     x x x x x 1.24 Clear
03/22/2019 08:17 AM 47.84 46.58 45.50 66.38 43.52 91.0 Not Reported 1.79 SW 2.01 SW 6.04 W x x Other     x x x x x 1.24 Clear
03/22/2019 08:19 AM 47.84 46.58 45.50 66.38 43.52 91.0 Not Reported 2.01 SW 1.57 SW 6.04 W x x Other     x x x x x 1.24 Clear
03/22/2019 08:20 AM 47.84 46.76 45.50 66.38 43.52 91.0 Not Reported 1.79 SW 2.01 SW 6.04 W x x Other     x x x x x 1.24 Clear
03/22/2019 08:21 AM 47.84 46.58 45.50 66.38 43.52 91.0 Not Reported 2.01 SW 2.46 SW 6.04 W x x Other     x x x x x 1.24 Clear
03/22/2019 08:23 AM 48.02 46.76 45.50 66.38 43.52 91.0 Not Reported 2.24 SW 2.01 SW 3.58 SW x x Other     x x x x x 1.24 Clear
03/22/2019 08:24 AM 48.02 46.76 45.50 66.38 43.52 91.0 Not Reported 2.24 SW 1.57 SW 3.58 SW x x Other     x x x x x 1.24 Clear
03/22/2019 08:25 AM 48.02 46.76 45.50 66.38 43.52 91.0 Not Reported 1.79 SW 1.57 SW 3.58 SW x x Other     x x x x x 1.24 Clear
03/22/2019 08:26 AM 48.02 46.58 45.32 66.38 43.52 91.0 Not Reported 1.79 SW 2.01 SW 3.58 SW x x Other     x x x x x 1.24 Clear
03/22/2019 08:27 AM 48.02 46.76 45.32 66.38 43.52 91.0 Not Reported 1.79 SW 1.79 SW 2.68 SW x x Other     x x x x x 1.24 Clear
03/22/2019 08:28 AM 48.02 46.76 45.50 66.38 43.52 91.0 Not Reported 1.79 SW 2.46 SW 2.68 SW x x Other     x x x x x 1.24 Clear
03/22/2019 08:29 AM 48.02 46.76 45.50 66.38 43.52 91.0 Not Reported 2.01 SW 1.34 SW 2.68 SW x x Other     x x x x x 1.24 Clear
03/22/2019 08:30 AM 48.02 46.94 45.68 66.38 43.52 91.0 Not Reported 1.79 SW 2.24 W 2.68 SW x x Other     x x x x x 1.24 Clear
03/22/2019 08:31 AM 48.20 46.94 45.68 66.38 43.52 91.0 Not Reported 1.79 W 2.68 W 3.13 SW x x Other     x x x x x 1.24 Clear
03/22/2019 08:32 AM 48.20 46.94 45.68 66.38 43.52 91.0 Not Reported 2.01 W 2.68 SW 5.82 NW x x Other     x x x x x 1.24 Clear
03/22/2019 08:33 AM 48.20 46.94 45.68 66.38 43.52 91.0 Not Reported 2.01 NW 1.12 NW 5.82 NW x x Other     x x x x x 1.24 Clear
03/22/2019 08:34 AM 48.38 47.12 45.86 66.38 43.52 91.0 Not Reported 1.34 SW 0.67 W 5.82 NW x x Other     x x x x x 1.24 Clear
03/22/2019 08:35 AM 48.38 47.12 45.86 66.38 43.52 90.0 Not Reported 1.79 W 1.34 SW 5.82 NW x x Other     x x x x x 1.24 Clear
03/22/2019 08:36 AM 48.56 47.12 45.86 66.38 43.52 90.0 Not Reported 2.24 SW 1.79 SW 5.82 NW x x Other     x x x x x 1.24 Clear
03/22/2019 08:37 AM 48.56 47.12 45.86 66.38 43.52 90.0 Not Reported 1.79 SW 1.57 SW 5.82 NW x x Other     x x x x x 1.24 Clear
03/22/2019 08:38 AM 48.38 47.12 45.86 66.38 43.52 90.0 Not Reported 1.79 SW 1.79 SW 5.82 NW x x Other     x x x x x 1.24 Clear
03/22/2019 08:39 AM 48.38 47.12 45.86 66.38 43.52 91.0 Not Reported 2.01 SW 1.79 SW 5.82 NW x x Other     x x x x x 1.24 Clear
03/22/2019 08:40 AM 48.56 47.30 46.04 66.38 43.52 91.0 Not Reported 2.01 SW 2.46 SW 5.82 NW x x Other     x x x x x 1.24 Clear
03/22/2019 08:41 AM 48.56 47.30 46.04 66.38 43.52 91.0 Not Reported 2.24 SW 2.46 SW 5.82 NW x x Other     x x x x x 1.24 Clear
03/22/2019 08:42 AM 48.74 47.48 46.22 66.38 43.52 91.0 Not Reported 2.46 SW 2.24 SW 5.37 NW x x Other     x x x x x 1.24 Clear
03/22/2019 08:43 AM 48.92 47.48 46.22 66.38 43.52 90.0 Not Reported 2.46 SW 1.79 W 5.37 NW x x Other     x x x x x 1.24 Clear
03/22/2019 08:44 AM 48.92 47.66 46.22 66.38 43.52 90.0 Not Reported 2.46 SW 2.01 W 5.37 NW x x Other     x x x x x 1.24 Clear
03/22/2019 08:45 AM 48.92 47.66 46.40 66.38 43.52 90.0 Not Reported 2.46 W 2.24 SW 3.13 SW x x Other     x x x x x 1.24 Clear
03/22/2019 08:46 AM 49.10 47.66 46.40 66.38 43.52 90.0 Not Reported 2.46 W 2.24 SW 3.80 W x x Other     x x x x x 1.24 Clear
03/22/2019 08:47 AM 49.10 47.84 46.40 66.38 43.52 90.0 Not Reported 2.24 SW 2.01 SW 3.80 W x x Other     x x x x x 1.24 Clear
03/22/2019 08:48 AM 49.28 47.84 46.40 66.38 43.52 90.0 Not Reported 2.01 SW 1.79 SW 3.80 W x x Other     x x x x x 1.24 Clear
03/22/2019 08:49 AM 49.28 47.84 46.40 66.38 43.52 89.0 Not Reported 2.24 SW 2.46 SW 3.80 W x x Other     x x x x x 1.24 Clear
03/22/2019 08:50 AM 49.46 47.84 46.40 66.38 43.52 89.0 Not Reported 2.24 SW 2.46 SW 3.80 W x x Other     x x x x x 1.24 Clear
03/22/2019 08:51 AM 49.46 47.84 46.40 66.38 43.52 89.0 Not Reported 2.46 SW 2.24 SW 3.80 W x x Other     x x x x x 1.24 Clear
03/22/2019 08:52 AM 49.46 47.66 46.04 66.38 43.52 88.0 Not Reported 2.24 SW 2.46 SW 3.80 W x x Other     x x x x x 1.24 Clear
03/22/2019 08:53 AM 49.46 47.66 46.04 66.38 43.52 87.0 Not Reported 2.46 W 2.46 W 3.80 W x x Other     x x x x x 1.24 Clear
03/22/2019 08:54 AM 49.46 47.66 46.04 66.38 43.52 87.0 Not Reported 2.46 W 2.24 SW 3.80 W x x Other     x x x x x 1.24 Clear
03/22/2019 08:55 AM 49.46 47.66 46.04 66.38 43.52 87.0 Not Reported 2.68 W 2.91 W 3.58 W x x Other     x x x x x 1.24 Clear
03/22/2019 08:56 AM 49.46 47.48 45.50 66.38 43.52 86.0 Not Reported 2.91 W 3.58 W 3.58 W x x Other     x x x x x 1.24 Clear
03/22/2019 08:58 AM 49.82 47.84 46.04 66.38 43.52 86.0 Not Reported 3.36 W 3.36 W 4.03 W x x Other     x x x x x 1.24 Clear
03/22/2019 08:59 AM 49.82 47.66 45.68 66.38 43.52 85.0 Not Reported 3.36 W 3.58 W 4.25 W x x Other     x x x x x 1.24 Clear
03/22/2019 09:00 AM 49.82 47.66 45.68 66.38 43.52 85.0 Not Reported 3.36 W 3.80 W 4.25 W x x Other     x x x x x 1.24 Clear
03/22/2019 09:01 AM 49.82 47.66 45.68 66.38 43.52 86.0 Not Reported 3.36 W 3.36 W 4.25 W x x Other     x x x x x 1.24 Clear
03/22/2019 09:02 AM 50.00 47.84 45.86 66.38 43.52 85.0 Not Reported 3.36 W 2.91 W 4.25 W x x Other     x x x x x 1.24 Clear
03/22/2019 09:03 AM 50.18 48.02 46.04 66.38 43.52 86.0 Not Reported 2.91 SW 2.91 W 4.25 W x x Other     x x x x x 1.24 Clear
03/22/2019 09:04 AM 50.36 48.20 46.22 66.38 43.52 86.0 Not Reported 2.91 SW 3.13 SW 4.25 W x x Other     x x x x x 1.24 Clear
03/22/2019 09:05 AM 50.54 48.20 46.04 66.38 43.52 84.0 Not Reported 2.91 SW 2.91 W 4.25 W x x Other     x x x x x 1.24 Clear
03/22/2019 09:06 AM 50.54 48.20 46.04 66.38 43.52 84.0 Not Reported 2.68 W 1.57 W 4.25 W x x Other     x x x x x 1.24 Clear
03/22/2019 09:07 AM 50.54 48.20 46.04 66.38 43.52 84.0 Not Reported 2.68 SW 2.46 SW 4.25 W x x Other     x x x x x 1.24 Clear
03/22/2019 09:08 AM 50.72 48.38 46.22 66.38 43.52 84.0 Not Reported 2.68 SW 2.68 SW 4.03 SW x x Other     x x x x x 1.24 Clear
03/22/2019 09:09 AM 50.90 48.56 46.58 66.38 43.52 85.0 Not Reported 2.91 SW 3.13 SW 4.03 SW x x Other     x x x x x 1.24 Clear
03/22/2019 09:10 AM 51.08 48.56 46.40 66.38 43.52 84.0 Not Reported 3.58 SW 4.92 SW 5.59 W x x Other     x x x x x 1.24 Clear
03/22/2019 09:11 AM 51.08 48.56 46.04 66.38 43.52 83.0 Not Reported 4.03 SW 3.58 W 5.59 W x x Other     x x x x x 1.24 Clear
03/22/2019 09:12 AM 50.90 48.38 45.86 66.38 43.52 83.0 Not Reported 4.25 W 3.80 SW 5.59 W x x Other     x x x x x 1.24 Clear
03/22/2019 09:13 AM 51.08 48.56 46.22 66.38 43.52 83.0 Not Reported 4.03 SW 3.36 SW 5.59 W x x Other     x x x x x 1.24 Clear
03/22/2019 09:14 AM 51.08 48.92 46.22 66.38 43.52 84.0 Not Reported 3.58 SW 4.03 SW 5.59 W x x Other     x x x x x 1.24 Clear
03/22/2019 09:15 AM 51.44 48.74 46.58 66.38 43.52 84.0 Not Reported 3.80 SW 3.13 SW 5.59 SW x x Other     x x x x x 1.24 Clear
03/22/2019 09:16 AM 51.62 49.10 46.22 66.38 43.52 82.0 Not Reported 3.58 SW 3.58 SW 5.59 SW x x Other     x x x x x 1.24 Clear
03/22/2019 09:17 AM 51.80 49.10 46.40 66.38 43.52 82.0 Not Reported 3.13 SW 2.68 SW 5.59 SW x x Other     x x x x x 1.24 Clear
03/22/2019 09:18 AM 51.98 48.92 46.22 66.38 43.52 80.0 Not Reported 3.13 SW 4.03 SW 5.59 SW x x Other     x x x x x 1.24 Clear
03/22/2019 09:19 AM 51.98 49.10 46.04 66.38 43.52 81.0 Not Reported 3.13 SW 3.13 SW 5.59 SW x x Other     x x x x x 1.24 Clear
03/22/2019 09:20 AM 51.98 49.10 46.40 66.38 43.52 81.0 Not Reported 3.13 SW 2.46 W 5.59 SW x x Other     x x x x x 1.24 Clear
03/22/2019 09:21 AM 52.16 48.92 46.22 66.38 43.52 80.0 Not Reported 2.91 SW 3.13 W 5.59 SW x x Other     x x x x x 1.24 Clear
03/22/2019 09:22 AM 51.98 48.92 46.04 66.38 43.52 80.0 Not Reported 2.68 SW 2.91 W 5.59 SW x x Other     x x x x x 1.24 Clear
03/22/2019 09:23 AM 51.98 49.10 46.22 66.38 43.52 80.0 Not Reported 3.13 SW 3.80 SW 5.59 SW x x Other     x x x x x 1.24 Clear
03/22/2019 09:24 AM 51.98 49.10 46.22 66.38 43.52 80.0 Not Reported 3.36 SW 2.46 SW 4.70 SW x x Other     x x x x x 1.24 Clear
03/22/2019 09:25 AM 52.16 49.10 46.22 66.38 43.52 80.0 Not Reported 3.13 SW 4.25 SW 4.70 SW x x Other     x x x x x 1.24 Clear
03/22/2019 09:26 AM 52.16 49.10 46.40 66.38 43.52 80.0 Not Reported 3.36 SW 4.03 SW 4.70 SW x x Other     x x x x x 1.24 Clear
03/22/2019 09:27 AM 52.16 49.10 46.22 66.38 43.52 80.0 Not Reported 3.80 SW 4.92 SW 5.14 SW x x Other     x x x x x 1.24 Clear
03/22/2019 09:28 AM 52.34 49.10 46.22 66.38 43.52 80.0 Not Reported 4.03 SW 4.47 SW 5.14 SW x x Other     x x x x x 1.24 Clear
03/22/2019 09:29 AM 52.34 49.10 46.04 66.38 43.52 78.0 Not Reported 4.03 SW 2.46 SW 5.14 SW x x Other     x x x x x 1.24 Clear
03/22/2019 09:30 AM 52.34 48.92 45.68 66.38 43.52 78.0 Not Reported 3.58 SW 3.80 SW 5.14 SW x x Other     x x x x x 1.24 Clear
03/22/2019 09:31 AM 52.52 49.10 46.04 66.38 43.52 78.0 Not Reported 3.13 SW 2.46 SW 5.14 SW x x Other     x x x x x 1.24 Clear
03/22/2019 09:32 AM 52.52 49.28 46.22 66.38 43.52 78.0 Not Reported 2.91 SW 2.91 SW 5.14 SW x x Other     x x x x x 1.24 Clear
03/22/2019 09:33 AM 52.70 49.28 46.04 66.38 43.52 78.0 Not Reported 3.13 SW 4.47 W 5.14 SW x x Other     x x x x x 1.24 Clear
03/22/2019 09:34 AM 52.70 49.10 46.04 66.38 43.52 78.0 Not Reported 3.36 SW 3.80 SW 5.14 SW x x Other     x x x x x 1.24 Clear
03/22/2019 09:35 AM 52.52 48.92 45.68 66.38 43.52 78.0 Not Reported 3.36 SW 2.68 SW 5.14 SW x x Other     x x x x x 1.24 Clear
03/22/2019 09:36 AM 52.34 48.92 45.86 66.38 43.52 78.0 Not Reported 3.13 SW 3.36 SW 5.14 SW x x Other     x x x x x 1.24 Clear
03/22/2019 09:37 AM 52.52 49.10 46.22 66.38 43.52 79.0 Not Reported 2.91 SW 2.91 SW 5.14 SW x x Other     x x x x x 1.24 Clear
03/22/2019 09:38 AM 52.70 48.92 45.68 66.38 43.52 77.0 Not Reported 3.13 SW 4.47 SW 4.47 W x x Other     x x x x x 1.24 Clear
03/22/2019 09:39 AM 52.70 49.10 45.68 66.38 43.52 77.0 Not Reported 3.36 SW 2.24 SW 4.47 SW x x Other     x x x x x 1.24 Clear
03/22/2019 09:40 AM 52.70 48.92 45.50 66.38 43.52 76.0 Not Reported 2.91 SW 2.46 SW 4.47 SW x x Other     x x x x x 1.24 Clear
03/22/2019 09:41 AM 52.70 48.92 45.68 66.38 43.52 76.0 Not Reported 2.46 SW 3.13 SW 4.47 SW x x Other     x x x x x 1.24 Clear
03/22/2019 09:42 AM 52.88 48.92 45.32 66.38 43.52 75.0 Not Reported 2.46 SW 2.91 SW 4.47 SW x x Other     x x x x x 1.24 Clear
03/22/2019 09:43 AM 53.06 49.10 45.50 66.38 43.52 75.0 Not Reported 2.24 SW 1.57 SW 4.47 SW x x Other     x x x x x 1.24 Clear
03/22/2019 09:44 AM 53.24 49.10 45.32 66.38 43.52 74.0 Not Reported 2.24 SW 2.68 SW 4.47 SW x x Other     x x x x x 1.24 Clear
03/22/2019 09:45 AM 53.06 49.10 45.32 66.38 43.52 75.0 Not Reported 2.46 SW 2.24 SW 4.47 SW x x Other     x x x x x 1.24 Clear
03/22/2019 09:46 AM 53.06 49.28 45.68 66.38 43.52 76.0 Not Reported 2.01 SW 1.79 SW 4.47 SW x x Other     x x x x x 1.24 Clear
03/22/2019 09:47 AM 53.24 49.10 45.50 66.38 43.52 75.0 Not Reported 2.01 SW 1.79 S 4.47 SW x x Other     x x x x x 1.24 Clear
03/22/2019 09:48 AM 53.24 49.46 45.86 66.38 43.52 76.0 Not Reported 2.01 SW 2.01 S 3.36 SW x x Other     x x x x x 1.24 Clear
03/22/2019 09:49 AM 53.42 49.46 46.04 66.38 43.52 75.0 Not Reported 2.46 SW 4.03 SW 4.47 SW x x Other     x x x x x 1.24 Clear
03/22/2019 09:50 AM 53.60 49.46 45.86 66.38 43.52 75.0 Not Reported 2.91 SW 1.57 SW 4.47 SW x x Other     x x x x x 1.24 Clear
03/22/2019 09:51 AM 53.78 49.64 46.04 66.38 43.52 75.0 Not Reported 2.46 SW 2.46 SW 4.47 SW x x Other     x x x x x 1.24 Clear
03/22/2019 09:52 AM 53.78 49.82 46.04 66.38 43.52 75.0 Not Reported 2.68 SW 3.13 SW 4.47 SW x x Other     x x x x x 1.24 Clear
03/22/2019 09:53 AM 53.78 49.46 45.50 66.38 43.52 73.0 Not Reported 2.68 SW 1.79 S 4.47 SW x x Other     x x x x x 1.24 Clear
03/22/2019 09:54 AM 53.78 49.46 45.50 66.38 43.52 74.0 Not Reported 2.68 SW 2.01 S 4.47 SW x x Other     x x x x x 1.24 Clear
03/22/2019 09:57 AM 53.78 49.46 45.50 66.38 43.52 73.0 Not Reported 2.24 S 1.12 SW 4.47 SW x x Other     x x x x x 1.24 Clear
03/22/2019 09:58 AM 53.96 49.82 45.50 66.38 43.52 74.0 Not Reported 2.01 S 4.70 SW 4.47 SW x x Other     x x x x x 1.24 Clear
03/22/2019 10:00 AM 54.14 49.64 45.50 66.38 43.52 72.0 Not Reported 4.03 SW 4.03 SW 5.59 SW x x Other     x x x x x 1.24 Clear
03/22/2019 10:01 AM 54.32 49.82 45.86 66.38 43.52 73.0 Not Reported 3.36 SW 2.24 SW 5.59 SW x x Other     x x x x x 1.24 Clear
03/22/2019 10:02 AM 54.32 49.64 45.50 66.38 43.52 72.0 Not Reported 3.36 SW 3.58 SW 5.59 SW x x Other     x x x x x 1.24 Clear
03/22/2019 10:03 AM 54.32 49.82 45.86 66.38 43.52 72.0 Not Reported 3.58 SW 4.70 SW 5.59 SW x x Other     x x x x x 1.24 Clear
03/22/2019 10:04 AM 54.68 50.00 45.86 66.38 43.52 72.0 Not Reported 4.03 SW 2.46 S 5.59 SW x x Other     x x x x x 1.24 Clear
03/22/2019 10:05 AM 54.68 50.00 45.86 66.38 43.52 72.0 Not Reported 3.36 SW 3.58 SW 5.59 SW x x Other     x x x x x 1.24 Clear
03/22/2019 10:06 AM 54.68 50.00 45.86 66.38 43.52 72.0 Not Reported 2.68 SW 0.45 SE 5.59 SW x x Other     x x x x x 1.24 Clear
03/22/2019 10:07 AM 54.86 50.00 45.86 66.38 43.52 71.0 Not Reported 2.01 S 2.01 SE 5.59 SW x x Other     x x x x x 1.24 Clear
03/22/2019 10:08 AM 54.86 50.18 46.04 66.38 43.52 72.0 Not Reported 2.24 SE 2.68 SE 5.59 SW x x Other     x x x x x 1.24 Clear
03/22/2019 10:09 AM 54.68 49.82 45.50 66.38 43.52 71.0 Not Reported 2.68 SE 3.58 SE 5.14 SE x x Other     x x x x x 1.24 Clear
03/22/2019 10:10 AM 54.68 50.00 45.68 66.38 43.52 71.0 Not Reported 3.36 SE 2.91 S 5.82 SE x x Other     x x x x x 1.24 Clear
03/22/2019 10:11 AM 54.50 49.82 45.68 66.38 43.52 72.0 Not Reported 3.58 SE 3.36 SE 5.82 SE x x Other     x x x x x 1.24 Clear
03/22/2019 10:13 AM 54.50 49.82 45.68 66.38 43.52 72.0 Not Reported 3.13 SE 2.91 SE 5.82 SE x x Other     x x x x x 1.24 Clear
03/22/2019 10:15 AM 55.04 50.18 46.04 66.38 43.52 71.0 Not Reported 2.68 SE 2.68 S 5.82 SE x x Other     x x x x x 1.24 Clear
03/22/2019 10:16 AM 55.22 50.18 45.86 66.38 43.52 70.0 Not Reported 3.13 SE 4.92 S 5.82 SE x x Other     x x x x x 1.24 Clear
03/22/2019 10:17 AM 55.04 50.18 45.68 66.38 43.52 70.0 Not Reported 3.36 S 2.24 SE 5.82 SE x x Other     x x x x x 1.24 Clear
03/22/2019 10:18 AM 55.04 50.18 45.86 66.38 43.52 70.0 Not Reported 3.36 S 4.47 SW 5.82 SE x x Other     x x x x x 1.24 Clear
03/22/2019 10:19 AM 55.22 50.18 45.86 66.38 43.52 70.0 Not Reported 3.36 SW 2.24 SW 5.37 SE x x Other     x x x x x 1.24 Clear
03/22/2019 10:20 AM 55.22 50.18 45.68 66.38 43.52 70.0 Not Reported 3.36 SW 3.58 SE 5.37 SE x x Other     x x x x x 1.24 Clear
03/22/2019 10:21 AM 55.22 50.18 45.68 66.38 43.52 70.0 Not Reported 3.13 S 2.68 SW 5.37 SE x x Other     x x x x x 1.24 Clear
03/22/2019 10:22 AM 55.58 50.54 46.40 66.38 43.52 71.0 Not Reported 3.13 S 2.91 SW 5.37 SE x x Other     x x x x x 1.24 Clear
03/22/2019 10:23 AM 55.76 50.36 45.68 66.38 43.52 69.0 Not Reported 2.68 SW 2.91 SW 5.37 SE x x Other     x x x x x 1.24 Clear
03/22/2019 10:24 AM 55.76 50.36 45.50 66.38 43.52 68.0 Not Reported 2.68 SW 3.36 SW 5.37 SE x x Other     x x x x x 1.24 Clear
03/22/2019 10:25 AM 55.58 50.36 45.68 66.38 43.52 69.0 Not Reported 2.91 SW 2.24 SW 5.37 SE x x Other     x x x x x 1.24 Clear
03/22/2019 10:26 AM 55.58 50.36 45.68 66.38 43.52 69.0 Not Reported 2.24 SW 2.01 SW 5.14 SW x x Other     x x x x x 1.24 Clear
03/22/2019 10:27 AM 55.76 50.36 45.68 66.38 43.52 69.0 Not Reported 2.01 SW 3.58 SE 5.14 SW x x Other     x x x x x 1.24 Clear
03/22/2019 10:28 AM 55.58 50.54 46.22 66.38 43.52 70.0 Not Reported 2.68 SE 2.01 SE 4.92 S x x Other     x x x x x 1.24 Clear
03/22/2019 10:29 AM 55.94 50.54 45.86